FR1064 / EI-DAH 7700 Squawk Report (20th of October, 2019)

Aircraft B738 Reg No. EI-DAH Age 16 years old
Model 737 Jet engines 2 First flight 07-01-03
Registered 22-01-03 Rollout 18-12-02 Delivered 22-01-03
Construction No. 33546 Line No. 1269 Series 8AS
ADSHEX 4CA1B9 Airline name Ryanair Owner N/A
Airfield based Dublin~Co Dublin~EI First tracked 2017-07-13 09:07:00

Flight history for EI-DAH

Time Lat Lon Altitude Heading Speed Vertical Rate
2019-10-20 13:13:19 GMT 55.947247 -3.353493 0 208 7
2019-10-20 13:13:14 GMT 55.947372 -3.353369 0 208 7
2019-10-20 13:13:05 GMT 55.947575 -3.353169 0 157 5
2019-10-20 13:12:55 GMT 55.947739 -3.353369 0 120 7
2019-10-20 13:12:46 GMT 55.947956 -3.354049 0 118 15
2019-10-20 13:12:35 GMT 55.948284 -3.355100 0 118 16
2019-10-20 13:12:25 GMT 55.948677 -3.356406 0 118 15
2019-10-20 13:12:14 GMT 55.948982 -3.357418 0 118 14
We lost coverage of the aircraft here for a total of 7 minutes
2019-10-20 13:04:51 GMT 55.954010 -3.360593 0 59 36 0
2019-10-20 13:04:47 GMT 55.953812 -3.361194 0 59 38 0
2019-10-20 13:04:36 GMT 55.952763 -3.364272 0 59 41 0
2019-10-20 13:04:27 GMT 55.951820 -3.367095 0 59 52 0
2019-10-20 13:04:03 GMT 55.947418 -3.380044 -50 58 136 -128
2019-10-20 13:03:52 GMT 55.943966 -3.390141 50 58 143 -896
2019-10-20 13:03:46 GMT 55.941696 -3.396773 150 58 143 -960
2019-10-20 13:03:38 GMT 55.938984 -3.404818 275 59 146 -896
2019-10-20 13:03:33 GMT 55.937256 -3.410006 500 58 139 -576
2019-10-20 13:03:27 GMT 55.935307 -3.415718 400 58 144 -832
2019-10-20 13:03:22 GMT 55.933399 -3.421211 450 58 143 -640
2019-10-20 13:03:17 GMT 55.930092 -3.430824 575 58 139 -640
2019-10-20 13:03:12 GMT 55.930092 -3.430824 575 58 139 -640
2019-10-20 13:03:06 GMT 55.927765 -3.437605 650 58 140 -896
2019-10-20 13:03:02 GMT 55.926590 -3.440968 700 58 141 -896
2019-10-20 13:02:58 GMT 55.925171 -3.445046 800 59 143 -960
2019-10-20 13:02:54 GMT 55.923935 -3.448708 825 59 143 -960
2019-10-20 13:02:51 GMT 55.923111 -3.451252 850 59 142 -1024
2019-10-20 13:02:47 GMT 55.921509 -3.456032 925 58 142 -576
2019-10-20 13:02:44 GMT 55.919666 -3.461294 1,000 58 140 -768
2019-10-20 13:02:41 GMT 55.919666 -3.461294 1,000 58 140 -768
2019-10-20 13:02:37 GMT 55.918316 -3.465328 1,050 58 138 -832
2019-10-20 13:02:34 GMT 55.916267 -3.471422 1,125 59 137 -768
2019-10-20 13:02:31 GMT 55.916267 -3.471422 1,125 59 137 -704
2019-10-20 13:02:26 GMT 55.914593 -3.476486 1,250 59 136 -640
2019-10-20 13:02:20 GMT 55.912857 -3.481667 1,250 59 140 -448
2019-10-20 13:02:15 GMT 55.910843 -3.487743 1,325 59 141 -640
2019-10-20 13:02:11 GMT 55.909561 -3.491764 1,375 58 141 -640
2019-10-20 13:02:05 GMT 55.907887 -3.496656 1,450 58 142 -576
2019-10-20 13:02:01 GMT 55.905899 -3.502308 1,475 58 144 -704
2019-10-20 13:01:55 GMT 55.904209 -3.507214 1,575 57 148 -1024
2019-10-20 13:01:52 GMT 55.903061 -3.510631 1,600 57 150 -896
2019-10-20 13:01:47 GMT 55.901371 -3.515368 1,675 57 153 -768
2019-10-20 13:01:41 GMT 55.896530 -3.528929 1,850 57 156 -1024
2019-10-20 13:01:35 GMT 55.896530 -3.528929 1,875 57 156 -1088
2019-10-20 13:01:29 GMT 55.894318 -3.535018 1,925 57 156 -832
2019-10-20 13:01:24 GMT 55.892303 -3.540677 2,000 57 156 -832
2019-10-20 13:01:20 GMT 55.891068 -3.544173 2,075 57 157 -832
2019-10-20 13:01:16 GMT 55.889053 -3.549749 2,150 56 156 -896
2019-10-20 13:01:13 GMT 55.888000 -3.552579 2,175 57 156 -832
2019-10-20 13:01:09 GMT 55.886055 -3.558025 2,200 57 155 -896
2019-10-20 13:01:03 GMT 55.884331 -3.563089 2,325 58 155 -960
2019-10-20 13:00:58 GMT 55.882416 -3.568726 2,375 58 156 -896
2019-10-20 13:00:53 GMT 55.880562 -3.574333 2,475 60 157 -768
2019-10-20 13:00:50 GMT 55.879486 -3.577798 2,500 61 157 -832
2019-10-20 13:00:47 GMT 55.878605 -3.580685 2,550 61 157 -896
2019-10-20 13:00:44 GMT 55.877197 -3.585205 2,625 62 156 -896
2019-10-20 13:00:37 GMT 55.874973 -3.593216 2,700 64 157 -768
2019-10-20 13:00:32 GMT 55.873672 -3.598022 2,750 63 158 -832
2019-10-20 13:00:29 GMT 55.871521 -3.605430 2,925 61 157 -832
2019-10-20 13:00:26 GMT 55.871521 -3.605430 2,850 62 157 -960
2019-10-20 13:00:23 GMT 55.870148 -3.610091 2,900 61 157 -832
2019-10-20 13:00:19 GMT 55.869141 -3.613337 2,950 60 156 -896
2019-10-20 13:00:15 GMT 55.867992 -3.616991 3,000 59 156 -896
2019-10-20 13:00:12 GMT 55.866596 -3.621283 3,050 59 156 -896
2019-10-20 13:00:09 GMT 55.865570 -3.624240 3,100 58 157 -896
2019-10-20 13:00:06 GMT 55.864269 -3.628063 3,150 57 157 -1024
2019-10-20 13:00:02 GMT 55.862915 -3.631897 3,200 57 157 -1024
2019-10-20 12:59:59 GMT 55.861614 -3.635530 3,250 56 158 -896
2019-10-20 12:59:52 GMT 55.858292 -3.644215 3,375 54 160 -960
2019-10-20 12:59:49 GMT 55.857468 -3.646296 3,400 54 159 -896
2019-10-20 12:59:41 GMT 55.852676 -3.657675 3,525 52 160 -960
2019-10-20 12:59:38 GMT 55.852676 -3.657675 3,575 52 161 -1024
2019-10-20 12:59:31 GMT 55.848953 -3.665743 3,700 49 159 -1024
2019-10-20 12:59:28 GMT 55.847977 -3.667889 3,750 49 159 -1152
2019-10-20 12:59:21 GMT 55.844997 -3.674068 3,925 49 156 -960
2019-10-20 12:59:18 GMT 55.843231 -3.677757 3,925 49 156 -1024
2019-10-20 12:59:13 GMT 55.840851 -3.682667 4,050 51 155 -896
2019-10-20 12:59:10 GMT 55.839317 -3.686085 4,075 51 155 -768
2019-10-20 12:59:07 GMT 55.838245 -3.688488 4,100 25 150 -576
2019-10-20 12:59:01 GMT 55.835358 -3.694410 4,200 38 151 -832
2019-10-20 12:58:58 GMT 55.833389 -3.697149 4,200 38 151 -832
2019-10-20 12:58:49 GMT 55.828190 -3.701277 4,325 18 151 -256
2019-10-20 12:58:46 GMT 55.826283 -3.702478 4,325 18 151 -256
2019-10-20 12:58:42 GMT 55.823441 -3.704195 4,325 18 151 -192
2019-10-20 12:58:39 GMT 55.821068 -3.705568 4,350 16 152 -128
2019-10-20 12:58:36 GMT 55.819336 -3.706554 4,350 15 152 -64
2019-10-20 12:58:32 GMT 55.816879 -3.707628 4,350 12 153 -128
2019-10-20 12:58:28 GMT 55.813900 -3.708658 4,375 6 154 -256
2019-10-20 12:58:25 GMT 55.812454 -3.708916 4,375 4 154 -128
2019-10-20 12:58:22 GMT 55.809940 -3.709259 4,400 1 155 -256
2019-10-20 12:58:18 GMT 55.806870 -3.709259 4,400 357 154 -192
2019-10-20 12:58:15 GMT 55.805145 -3.709051 4,400 355 154 -128
2019-10-20 12:58:12 GMT 55.801437 -3.708219 4,425 349 156 -192
2019-10-20 12:58:08 GMT 55.797638 -3.706554 4,425 344 157 -128
2019-10-20 12:57:58 GMT 55.792969 -3.703391 4,475 337 158 -384
2019-10-20 12:57:55 GMT 55.790810 -3.701534 4,475 335 159 -320
2019-10-20 12:57:48 GMT 55.786201 -3.696985 4,525 330 162 -320
2019-10-20 12:57:45 GMT 55.783997 -3.694652 4,550 329 164 -320
2019-10-20 12:57:37 GMT 55.779358 -3.689690 4,600 329 166 -384
2019-10-20 12:57:34 GMT 55.777267 -3.687494 4,600 330 166 -384
2019-10-20 12:57:27 GMT 55.772141 -3.682001 4,675 329 166 -384
2019-10-20 12:57:23 GMT 55.770466 -3.680162 4,675 329 167 -256
2019-10-20 12:57:17 GMT 55.765717 -3.675013 4,725 329 168 -256
2019-10-20 12:57:14 GMT 55.763763 -3.672867 4,725 329 169 -320
2019-10-20 12:57:06 GMT 55.756920 -3.665314 4,750 329 168 -320
2019-10-20 12:57:03 GMT 55.756920 -3.665314 4,775 328 167 -192
2019-10-20 12:56:55 GMT 55.751907 -3.659696 4,800 328 166 -320
2019-10-20 12:56:52 GMT 55.749657 -3.657160 4,825 328 166 -256
2019-10-20 12:56:46 GMT 55.743073 -3.649875 4,875 329 167 -448
2019-10-20 12:56:43 GMT 55.743073 -3.649875 4,900 329 167 -512
2019-10-20 12:56:35 GMT 55.737991 -3.644381 4,975 329 166 -768
2019-10-20 12:56:32 GMT 55.736435 -3.642634 5,025 329 167 -704
2019-10-20 12:56:25 GMT 55.731720 -3.637640 5,100 329 167 -576
2019-10-20 12:56:22 GMT 55.729752 -3.635559 5,125 329 167 -576
2019-10-20 12:56:14 GMT 55.723022 -3.628318 5,200 330 166 -512
2019-10-20 12:56:04 GMT 55.717804 -3.622908 5,275 330 165 -448
2019-10-20 12:56:01 GMT 55.716110 -3.621077 5,275 330 165 -256
2019-10-20 12:55:54 GMT 55.711346 -3.616219 5,300 330 163 -256
2019-10-20 12:55:51 GMT 55.709290 -3.614169 5,325 330 164 -192
2019-10-20 12:55:43 GMT 55.703987 -3.608665 5,350 330 166 -128
2019-10-20 12:55:40 GMT 55.702469 -3.607095 5,350 330 166 -320
2019-10-20 12:55:33 GMT 55.697662 -3.601934 5,400 329 167 -256
2019-10-20 12:55:30 GMT 55.695564 -3.599653 5,400 329 167 -128
2019-10-20 12:55:23 GMT 55.690815 -3.594589 5,425 329 167 -192
2019-10-20 12:55:20 GMT 55.688255 -3.591843 5,450 330 166 -192
2019-10-20 12:55:13 GMT 55.683014 -3.586287 5,500 330 164 -256
2019-10-20 12:55:08 GMT 55.680817 -3.584040 5,500 330 164 -320
2019-10-20 12:55:04 GMT 55.677750 -3.580877 5,525 330 163 -384
2019-10-20 12:55:01 GMT 55.676193 -3.579296 5,525 331 164 -256
2019-10-20 12:54:58 GMT 55.674290 -3.577337 5,550 331 164 -384
2019-10-20 12:54:53 GMT 55.670937 -3.573904 5,575 330 165 -576
2019-10-20 12:54:49 GMT 55.668686 -3.571639 5,625 330 165 -512
2019-10-20 12:54:46 GMT 55.666561 -3.569441 5,650 330 165 -576
2019-10-20 12:54:42 GMT 55.664246 -3.567061 5,725 330 165 -576
2019-10-20 12:54:39 GMT 55.662094 -3.564814 5,700 330 165 -576
2019-10-20 12:54:36 GMT 55.660091 -3.562832 5,750 330 164 -512
2019-10-20 12:54:32 GMT 55.655479 -3.558025 5,800 330 164 -576
2019-10-20 12:54:29 GMT 55.655479 -3.558025 5,800 330 164 -576
2019-10-20 12:54:26 GMT 55.652893 -3.555326 5,850 330 164 -576
2019-10-20 12:54:22 GMT 55.650467 -3.552829 5,875 330 164 -576
2019-10-20 12:54:18 GMT 55.648174 -3.550472 5,900 330 164 -512
2019-10-20 12:54:15 GMT 55.645935 -3.548085 5,925 330 165 -512
2019-10-20 12:54:11 GMT 55.643600 -3.545671 6,000 330 165 -512
2019-10-20 12:54:08 GMT 55.641563 -3.543606 6,000 331 166 -512
2019-10-20 12:54:02 GMT 55.637466 -3.539429 6,050 330 166 -512
2019-10-20 12:53:58 GMT 55.634857 -3.536739 6,075 330 167 -512
2019-10-20 12:53:52 GMT 55.630737 -3.532521 6,150 330 167 -448
2019-10-20 12:53:47 GMT 55.627831 -3.529530 6,175 330 167 -512
2019-10-20 12:53:41 GMT 55.623459 -3.525030 6,225 330 168 -384
2019-10-20 12:53:37 GMT 55.621170 -3.522700 6,250 331 168 -448
2019-10-20 12:53:31 GMT 55.616226 -3.517623 6,300 331 168 -512
2019-10-20 12:53:27 GMT 55.614143 -3.515539 6,325 331 168 -512
2019-10-20 12:53:20 GMT 55.609451 -3.510714 6,375 330 168 -512
2019-10-20 12:53:16 GMT 55.606693 -3.507900 6,425 330 169 -576
2019-10-20 12:53:10 GMT 55.602364 -3.503351 6,500 330 169 -576
2019-10-20 12:53:05 GMT 55.599380 -3.500227 6,525 330 169 -512
2019-10-20 12:53:01 GMT 55.596218 -3.497000 6,575 330 169 -512
2019-10-20 12:52:58 GMT 55.594208 -3.494901 6,600 330 169 -512
2019-10-20 12:52:53 GMT 55.591427 -3.492022 6,625 330 169 -512
2019-10-20 12:52:49 GMT 55.588715 -3.489158 6,650 330 169 -512
2019-10-20 12:52:46 GMT 55.586288 -3.486661 6,700 330 169 -448
2019-10-20 12:52:43 GMT 55.584255 -3.484554 6,725 330 169 -512
2019-10-20 12:52:39 GMT 55.581802 -3.481917 6,750 330 169 -448
2019-10-20 12:52:35 GMT 55.578918 -3.478921 6,750 330 169 -448
2019-10-20 12:52:29 GMT 55.574432 -3.474177 6,825 330 170 -512
2019-10-20 12:52:25 GMT 55.572281 -3.472013 6,850 330 171 -512
2019-10-20 12:52:19 GMT 55.567795 -3.467352 6,900 330 172 -192
2019-10-20 12:52:16 GMT 55.566055 -3.465586 6,900 330 172 -64
2019-10-20 12:52:13 GMT 55.563728 -3.463182 6,900 331 172 -128
2019-10-20 12:52:09 GMT 55.561111 -3.460527 6,925 331 172 -128
2019-10-20 12:52:05 GMT 55.558327 -3.457775 6,925 331 171 -64
2019-10-20 12:52:02 GMT 55.556351 -3.455783 6,925 331 171 0
2019-10-20 12:51:59 GMT 55.554230 -3.453655 6,925 331 171 64
2019-10-20 12:51:55 GMT 55.551346 -3.450823 6,925 331 170 64
2019-10-20 12:51:52 GMT 55.549622 -3.449124 6,900 331 171 0
2019-10-20 12:51:49 GMT 55.546921 -3.446445 6,900 331 171 0
2019-10-20 12:51:45 GMT 55.543991 -3.443548 6,900 331 171 0
2019-10-20 12:51:42 GMT 55.542664 -3.442216 6,900 331 171 64
2019-10-20 12:51:38 GMT 55.539192 -3.438721 6,900 331 171 0
2019-10-20 12:51:34 GMT 55.537079 -3.436557 6,900 331 171 64
2019-10-20 12:51:31 GMT 55.534424 -3.433893 6,900 331 171 64
2019-10-20 12:51:27 GMT 55.532257 -3.431768 6,900 331 171 64
2019-10-20 12:51:20 GMT 55.527462 -3.427048 6,900 332 171 0
2019-10-20 12:51:17 GMT 55.525322 -3.424988 6,900 332 171 -64
2019-10-20 12:51:14 GMT 55.522762 -3.422499 6,900 333 170 -64
2019-10-20 12:51:11 GMT 55.521362 -3.421297 6,900 334 170 -64
2019-10-20 12:51:08 GMT 55.518356 -3.418746 6,900 338 169 0
2019-10-20 12:51:03 GMT 55.515381 -3.416582 6,925 341 167 -64
2019-10-20 12:51:00 GMT 55.513138 -3.415250 6,925 344 167 -64
2019-10-20 12:50:57 GMT 55.510162 -3.413835 6,925 348 166 128
2019-10-20 12:50:53 GMT 55.507866 -3.412971 6,900 355 164 -64
2019-10-20 12:50:50 GMT 55.505951 -3.412420 6,900 355 164 0
2019-10-20 12:50:47 GMT 55.503250 -3.412004 6,900 358 164 0
2019-10-20 12:50:43 GMT 55.499859 -3.411856 6,900 6 164 64
2019-10-20 12:50:40 GMT 55.498180 -3.411942 6,900 4 163 64
2019-10-20 12:50:37 GMT 55.494827 -3.412503 6,900 9 164 0
2019-10-20 12:50:32 GMT 55.492085 -3.413315 6,900 14 162 -64
2019-10-20 12:50:29 GMT 55.487659 -3.415375 6,925 17 161 -64
2019-10-20 12:50:22 GMT 55.484802 -3.417164 6,925 24 160 64
2019-10-20 12:50:18 GMT 55.481827 -3.419578 6,900 27 160 0
2019-10-20 12:50:11 GMT 55.477341 -3.424239 6,900 37 160 0
2019-10-20 12:50:06 GMT 55.474346 -3.428164 6,900 41 160 -64
2019-10-20 12:50:02 GMT 55.470383 -3.434726 6,900 49 161 0
2019-10-20 12:49:58 GMT 55.468964 -3.437472 6,900 49 161 0
2019-10-20 12:49:55 GMT 55.468964 -3.437472 6,900 57 165 0
2019-10-20 12:49:51 GMT 55.466991 -3.442068 6,900 55 161 0
2019-10-20 12:49:47 GMT 55.464989 -3.447132 6,900 56 162 0
2019-10-20 12:49:44 GMT 55.464382 -3.448849 6,900 56 162 0
2019-10-20 12:49:41 GMT 55.462521 -3.453827 6,900 56 162 0
2019-10-20 12:49:37 GMT 55.460846 -3.458376 6,900 56 163 64
2019-10-20 12:49:34 GMT 55.460239 -3.460007 6,900 56 163 64
2019-10-20 12:49:30 GMT 55.458565 -3.464470 6,900 57 164 64
2019-10-20 12:49:26 GMT 55.456696 -3.469516 6,900 57 165 0
2019-10-20 12:49:23 GMT 55.454144 -3.476572 6,900 57 165 0
2019-10-20 12:49:20 GMT 55.454144 -3.476572 6,900 57 165 0
2019-10-20 12:49:17 GMT 55.453072 -3.479576 6,900 57 165 0
2019-10-20 12:49:14 GMT 55.451843 -3.482999 6,900 57 166 -64
2019-10-20 12:49:10 GMT 55.450058 -3.487909 6,900 57 166 -64
2019-10-20 12:49:07 GMT 55.448868 -3.491239 6,900 57 166 -64
2019-10-20 12:49:03 GMT 55.447266 -3.495733 6,900 57 166 64
2019-10-20 12:48:59 GMT 55.445763 -3.499918 6,900 57 168 0
2019-10-20 12:48:56 GMT 55.444656 -3.503057 6,900 57 168 64
2019-10-20 12:48:53 GMT 55.443283 -3.506901 6,900 57 168 64
2019-10-20 12:48:49 GMT 55.441341 -3.512129 6,900 57 169 -64
2019-10-20 12:48:46 GMT 55.440178 -3.515292 6,900 57 169 -64
2019-10-20 12:48:43 GMT 55.438686 -3.519370 6,900 56 169 0
2019-10-20 12:48:38 GMT 55.436737 -3.524592 6,900 56 170 0
2019-10-20 12:48:35 GMT 55.435474 -3.527943 6,900 56 171 -64
2019-10-20 12:48:32 GMT 55.433899 -3.532104 6,900 56 171 -64
2019-10-20 12:48:28 GMT 55.432343 -3.536224 6,925 56 171 0
2019-10-20 12:48:24 GMT 55.430603 -3.540829 6,900 56 173 0
2019-10-20 12:48:21 GMT 55.429096 -3.544839 6,900 56 173 0
2019-10-20 12:48:18 GMT 55.427994 -3.547857 6,925 57 175 -64
2019-10-20 12:48:14 GMT 55.426483 -3.551896 6,925 57 174 -128
2019-10-20 12:48:08 GMT 55.422161 -3.564065 6,925 58 173 128
2019-10-20 12:48:04 GMT 55.420300 -3.569308 6,925 58 174 128
2019-10-20 12:47:57 GMT 55.419044 -3.572970 6,925 58 174 64
2019-10-20 12:47:54 GMT 55.417786 -3.576466 6,900 58 174 64
2019-10-20 12:47:50 GMT 55.416248 -3.580794 6,900 57 173 64
2019-10-20 12:47:47 GMT 55.413548 -3.588368 6,900 57 173 64
2019-10-20 12:47:44 GMT 55.413548 -3.588368 6,900 57 173 -64
2019-10-20 12:47:41 GMT 55.412292 -3.591780 6,900 57 172 -64
2019-10-20 12:47:37 GMT 55.410187 -3.597538 6,900 57 171 -64
2019-10-20 12:47:31 GMT 55.408054 -3.603432 6,925 56 170 0
2019-10-20 12:47:26 GMT 55.405682 -3.609841 6,900 57 169 64
2019-10-20 12:47:21 GMT 55.403366 -3.616279 6,900 57 168 0
2019-10-20 12:47:16 GMT 55.401443 -3.621611 6,900 57 167 128
2019-10-20 12:47:13 GMT 55.400375 -3.624656 6,900 57 167 64
2019-10-20 12:47:10 GMT 55.399117 -3.628235 6,900 57 167 0
2019-10-20 12:47:05 GMT 55.397095 -3.633890 6,900 57 167 0
2019-10-20 12:47:02 GMT 55.395813 -3.637363 6,900 57 166 0
2019-10-20 12:46:58 GMT 55.393906 -3.642800 6,900 57 166 64
2019-10-20 12:46:55 GMT 55.392925 -3.645547 6,900 57 167 64
2019-10-20 12:46:52 GMT 55.391830 -3.648511 6,900 57 167 -64
2019-10-20 12:46:49 GMT 55.390553 -3.652039 6,900 56 166 -128
2019-10-20 12:46:45 GMT 55.388645 -3.657282 6,900 56 166 -64
2019-10-20 12:46:39 GMT 55.386200 -3.663779 6,925 56 166 0
2019-10-20 12:46:35 GMT 55.384686 -3.667769 6,900 57 167 64
2019-10-20 12:46:31 GMT 55.383152 -3.672097 6,900 57 168 64
2019-10-20 12:46:28 GMT 55.381989 -3.675331 6,900 57 168 0
2019-10-20 12:46:25 GMT 55.380661 -3.678966 6,900 57 168 0
2019-10-20 12:46:21 GMT 55.378777 -3.684165 6,900 57 168 0
2019-10-20 12:46:16 GMT 55.376678 -3.690033 6,900 57 170 64
2019-10-20 12:46:13 GMT 55.374397 -3.696483 6,900 57 171 64
2019-10-20 12:46:10 GMT 55.374397 -3.696483 6,900 58 172 0
2019-10-20 12:46:05 GMT 55.370907 -3.706138 6,900 57 172 -128
2019-10-20 12:45:59 GMT 55.369583 -3.709905 6,900 57 171 -128
2019-10-20 12:45:55 GMT 55.367882 -3.714544 6,925 56 170 -64
2019-10-20 12:45:52 GMT 55.366577 -3.718123 6,925 56 170 -64
2019-10-20 12:45:48 GMT 55.364456 -3.723961 6,925 56 170 -64
2019-10-20 12:45:44 GMT 55.363365 -3.726945 6,925 57 169 -64
2019-10-20 12:45:41 GMT 55.360016 -3.735851 6,925 57 169 128
2019-10-20 12:45:37 GMT 55.360016 -3.735851 6,925 57 169 64
2019-10-20 12:45:34 GMT 55.358322 -3.740522 6,925 57 169 64
2019-10-20 12:45:28 GMT 55.356537 -3.745369 6,900 57 169 128
2019-10-20 12:45:25 GMT 55.355034 -3.749334 6,900 57 169 64
2019-10-20 12:45:22 GMT 55.353973 -3.752235 6,900 57 169 0
2019-10-20 12:45:17 GMT 55.351685 -3.758536 6,900 56 169 -64
2019-10-20 12:45:12 GMT 55.349632 -3.764066 6,900 56 169 -64
2019-10-20 12:45:08 GMT 55.347839 -3.768957 6,900 56 169 -64
2019-10-20 12:45:04 GMT 55.346096 -3.773637 6,900 56 169 64
2019-10-20 12:45:01 GMT 55.344933 -3.776717 6,900 56 169 128
2019-10-20 12:44:58 GMT 55.343487 -3.780545 6,875 56 171 128
2019-10-20 12:44:55 GMT 55.340469 -3.788668 6,900 56 171 -256
2019-10-20 12:44:51 GMT 55.340469 -3.788668 6,875 56 170 -192
2019-10-20 12:44:47 GMT 55.338833 -3.793030 6,900 56 170 -192
2019-10-20 12:44:44 GMT 55.337357 -3.796907 6,900 56 169 -64
2019-10-20 12:44:40 GMT 55.335754 -3.801270 6,900 56 169 64
2019-10-20 12:44:34 GMT 55.333099 -3.808459 6,900 56 169 0
2019-10-20 12:44:30 GMT 55.331451 -3.812821 6,900 57 169 -128
2019-10-20 12:44:26 GMT 55.329849 -3.817184 6,900 57 169 -64
2019-10-20 12:44:23 GMT 55.328568 -3.820657 6,925 57 170 64
2019-10-20 12:44:20 GMT 55.327240 -3.824292 6,925 57 170 64
2019-10-20 12:44:14 GMT 55.324867 -3.830983 6,900 57 173 0
2019-10-20 12:44:09 GMT 55.322678 -3.836975 6,900 58 172 64
2019-10-20 12:44:05 GMT 55.319050 -3.847379 6,900 58 172 64
2019-10-20 12:44:01 GMT 55.319050 -3.847379 6,875 57 172 0
2019-10-20 12:43:55 GMT 55.315704 -3.856605 6,900 57 172 0
2019-10-20 12:43:48 GMT 55.313740 -3.861944 6,875 56 171 0
2019-10-20 12:43:43 GMT 55.311676 -3.867430 6,900 56 171 0
2019-10-20 12:43:40 GMT 55.310204 -3.871432 6,900 56 171 0
2019-10-20 12:43:37 GMT 55.309132 -3.874179 6,900 56 171 -64
2019-10-20 12:43:34 GMT 55.307831 -3.877758 6,900 57 172 0
2019-10-20 12:43:31 GMT 55.306549 -3.881163 6,900 56 171 0
2019-10-20 12:43:28 GMT 55.304901 -3.885687 6,900 57 172 -64
2019-10-20 12:43:24 GMT 55.302197 -3.892905 6,900 57 173 -64
2019-10-20 12:43:21 GMT 55.300472 -3.897650 6,925 56 171 -64
2019-10-20 12:43:18 GMT 55.300472 -3.897650 6,900 57 173 -128
2019-10-20 12:43:12 GMT 55.297958 -3.904558 6,925 57 173 0
2019-10-20 12:43:09 GMT 55.296795 -3.907720 6,925 56 174 64
2019-10-20 12:43:06 GMT 55.295727 -3.910633 6,900 56 174 64
2019-10-20 12:43:02 GMT 55.293911 -3.915461 6,900 56 173 64
2019-10-20 12:42:59 GMT 55.292175 -3.920100 6,900 56 173 0
2019-10-20 12:42:56 GMT 55.291069 -3.923035 6,900 56 173 -64
2019-10-20 12:42:53 GMT 55.289749 -3.926643 6,900 56 172 -64
2019-10-20 12:42:50 GMT 55.288696 -3.929527 6,900 56 172 0
2019-10-20 12:42:46 GMT 55.286789 -3.934604 6,900 56 171 0
2019-10-20 12:42:41 GMT 55.284088 -3.941845 6,900 56 171 64
2019-10-20 12:42:35 GMT 55.282196 -3.946838 6,900 56 170 64
2019-10-20 12:42:31 GMT 55.280182 -3.952332 6,900 56 171 128
2019-10-20 12:42:28 GMT 55.278946 -3.955563 6,900 56 171 0
2019-10-20 12:42:25 GMT 55.277851 -3.958574 6,900 56 171 64
2019-10-20 12:42:20 GMT 55.273521 -3.970059 6,900 56 172 -128
2019-10-20 12:42:16 GMT 55.273521 -3.970059 6,900 56 172 -128
2019-10-20 12:42:12 GMT 55.271938 -3.974304 6,925 57 172 -64
2019-10-20 12:42:09 GMT 55.270634 -3.977800 6,925 57 172 -64
2019-10-20 12:42:05 GMT 55.268967 -3.982302 6,925 57 172 -64
2019-10-20 12:42:02 GMT 55.267563 -3.986123 6,925 57 173 0
2019-10-20 12:41:58 GMT 55.265900 -3.990703 6,925 57 173 64
2019-10-20 12:41:54 GMT 55.264069 -3.995694 6,900 57 173 64
2019-10-20 12:41:49 GMT 55.262020 -4.001354 6,900 57 173 64
2019-10-20 12:41:44 GMT 55.259995 -4.006859 6,900 57 173 0
2019-10-20 12:41:41 GMT 55.258717 -4.010343 6,900 57 173 0
2019-10-20 12:41:38 GMT 55.257248 -4.014372 6,900 57 173 0
2019-10-20 12:41:34 GMT 55.255554 -4.018977 6,900 57 173 0
2019-10-20 12:41:29 GMT 55.253311 -4.025035 6,900 56 174 64
2019-10-20 12:41:26 GMT 55.252060 -4.028487 6,900 56 175 64
2019-10-20 12:41:23 GMT 55.250988 -4.031317 6,900 56 176 -64
2019-10-20 12:41:19 GMT 55.249035 -4.036560 6,900 56 177 0
2019-10-20 12:41:16 GMT 55.247635 -4.040222 6,900 56 176 -64
2019-10-20 12:41:13 GMT 55.246170 -4.044180 6,900 56 177 0
2019-10-20 12:41:10 GMT 55.244888 -4.047493 6,900 56 177 -64
2019-10-20 12:41:07 GMT 55.243057 -4.052420 6,900 56 177 0
2019-10-20 12:41:03 GMT 55.241726 -4.055953 6,900 56 177 0
2019-10-20 12:41:00 GMT 55.240448 -4.059367 6,900 56 178 0
2019-10-20 12:40:56 GMT 55.238663 -4.064053 6,900 56 177 -64
2019-10-20 12:40:48 GMT 55.234650 -4.074763 6,900 57 178 64
2019-10-20 12:40:37 GMT 55.230087 -4.087247 6,900 57 177 0
2019-10-20 12:40:30 GMT 55.226921 -4.095903 6,900 57 177 64
2019-10-20 12:40:27 GMT 55.225616 -4.099354 6,900 56 178 0
2019-10-20 12:40:20 GMT 55.222733 -4.107190 6,900 56 177 -64
2019-10-20 12:40:17 GMT 55.220871 -4.112133 6,900 56 178 128
2019-10-20 12:40:14 GMT 55.219658 -4.115379 6,900 56 178 -128
2019-10-20 12:40:09 GMT 55.217705 -4.120539 6,900 56 178 -128
2019-10-20 12:40:06 GMT 55.216309 -4.124367 6,925 56 178 0
2019-10-20 12:40:02 GMT 55.214630 -4.128759 6,925 56 178 64
2019-10-20 12:39:59 GMT 55.213028 -4.133040 6,900 56 178 128
2019-10-20 12:39:56 GMT 55.211514 -4.137018 6,900 56 179 64
2019-10-20 12:39:48 GMT 55.208130 -4.145723 6,900 55 179 0
2019-10-20 12:39:44 GMT 55.206436 -4.150169 6,900 55 179 0
2019-10-20 12:39:39 GMT 55.202133 -4.161233 6,900 56 178 -64
2019-10-20 12:39:35 GMT 55.202133 -4.161233 6,900 56 178 -64
2019-10-20 12:39:30 GMT 55.197647 -4.173593 6,900 57 179 64
2019-10-20 12:39:25 GMT 55.197647 -4.173593 6,900 58 179 -64
2019-10-20 12:39:22 GMT 55.195965 -4.178300 6,900 60 179 -64
2019-10-20 12:39:18 GMT 55.194534 -4.182802 6,900 63 180 128
2019-10-20 12:39:15 GMT 55.193405 -4.186623 6,900 65 180 64
2019-10-20 12:39:11 GMT 55.192055 -4.191867 6,900 67 181 -128
2019-10-20 12:39:08 GMT 55.191216 -4.195529 6,900 70 182 -192
2019-10-20 12:39:05 GMT 55.190231 -4.200413 6,925 73 181 -192
2019-10-20 12:38:58 GMT 55.188793 -4.209595 6,925 78 182 64
2019-10-20 12:38:55 GMT 55.188080 -4.215115 6,925 82 183 -128
2019-10-20 12:38:48 GMT 55.187401 -4.224576 6,925 86 182 -64
2019-10-20 12:38:44 GMT 55.187027 -4.232968 6,925 86 180 0
2019-10-20 12:38:40 GMT 55.186890 -4.235957 6,925 86 180 0
2019-10-20 12:38:37 GMT 55.186752 -4.240561 6,925 86 180 0
2019-10-20 12:38:33 GMT 55.186516 -4.246632 6,925 87 178 -64
2019-10-20 12:38:30 GMT 55.186386 -4.250901 6,925 87 179 192
2019-10-20 12:38:26 GMT 55.186234 -4.256536 6,925 87 179 64
2019-10-20 12:38:22 GMT 55.186066 -4.262695 6,925 87 178 -64
2019-10-20 12:38:19 GMT 55.185928 -4.266977 6,925 87 177 -64
2019-10-20 12:38:15 GMT 55.185791 -4.271501 6,925 87 176 -64
2019-10-20 12:38:12 GMT 55.185631 -4.277261 6,925 87 174 -64
2019-10-20 12:38:08 GMT 55.185444 -4.283336 6,925 87 173 128
2019-10-20 12:38:05 GMT 55.185349 -4.286333 6,900 86 173 256
2019-10-20 12:38:02 GMT 55.185211 -4.289828 6,900 86 174 256
2019-10-20 12:37:55 GMT 55.184921 -4.300259 6,900 87 173 -128
2019-10-20 12:37:52 GMT 55.184784 -4.304621 6,900 86 173 -64
2019-10-20 12:37:48 GMT 55.184605 -4.309720 6,900 86 173 64
2019-10-20 12:37:45 GMT 55.184467 -4.313882 6,900 86 174 64
2019-10-20 12:37:41 GMT 55.184280 -4.319404 6,900 86 174 -64
2019-10-20 12:37:35 GMT 55.183720 -4.333607 6,900 86 175 64
2019-10-20 12:37:31 GMT 55.183720 -4.333607 6,900 86 175 0
2019-10-20 12:37:25 GMT 55.183395 -4.341847 6,900 86 175 0
2019-10-20 12:37:22 GMT 55.183182 -4.346870 6,900 86 175 -64
2019-10-20 12:37:18 GMT 55.182976 -4.352833 6,900 86 175 0
2019-10-20 12:37:12 GMT 55.182678 -4.360603 6,900 86 176 64
2019-10-20 12:37:09 GMT 55.182556 -4.364319 6,900 88 177 0
2019-10-20 12:37:04 GMT 55.182323 -4.372226 6,900 87 177 0
2019-10-20 12:36:59 GMT 55.182137 -4.379467 6,900 87 177 -192
2019-10-20 12:36:55 GMT 55.182045 -4.385210 6,900 87 177 -128
2019-10-20 12:36:52 GMT 55.181904 -4.391119 6,900 89 177 0
2019-10-20 12:36:49 GMT 55.181858 -4.393366 6,925 89 177 0
2019-10-20 12:36:46 GMT 55.181858 -4.397111 6,925 89 177 64
2019-10-20 12:36:43 GMT 55.181854 -4.401559 6,900 91 177 64
2019-10-20 12:36:40 GMT 55.181900 -4.406568 6,900 93 176 0
2019-10-20 12:36:37 GMT 55.182175 -4.411738 6,925 97 176 -64
2019-10-20 12:36:33 GMT 55.182541 -4.415696 6,925 100 177 -128
2019-10-20 12:36:30 GMT 55.183163 -4.421082 6,925 105 176 -64
2019-10-20 12:36:26 GMT 55.183861 -4.425826 6,925 107 175 64
2019-10-20 12:36:21 GMT 55.185444 -4.433566 6,900 113 177 192
2019-10-20 12:36:17 GMT 55.186432 -4.437588 6,900 120 178 -64
2019-10-20 12:36:13 GMT 55.188145 -4.443221 6,900 121 178 -64
2019-10-20 12:36:09 GMT 55.189819 -4.448009 6,900 124 178 -64
2019-10-20 12:36:05 GMT 55.191605 -4.452452 6,900 125 179 -64
2019-10-20 12:36:02 GMT 55.192940 -4.455539 6,925 130 179 -128
2019-10-20 12:35:59 GMT 55.194988 -4.459617 6,925 134 179 -64
2019-10-20 12:35:55 GMT 55.197052 -4.463277 6,925 137 179 -64
2019-10-20 12:35:51 GMT 55.201401 -4.469820 6,925 143 181 256
2019-10-20 12:35:45 GMT 55.203644 -4.472566 6,900 146 182 0
2019-10-20 12:35:42 GMT 55.205414 -4.474598 6,900 149 184 0
2019-10-20 12:35:39 GMT 55.207973 -4.477178 6,900 152 185 -64
2019-10-20 12:35:36 GMT 55.210236 -4.479191 6,900 155 186 -128
2019-10-20 12:35:32 GMT 55.213329 -4.481506 6,925 158 186 -128
2019-10-20 12:35:28 GMT 55.217102 -4.483876 6,925 163 186 0
2019-10-20 12:35:25 GMT 55.219238 -4.485002 6,925 165 186 64
2019-10-20 12:35:22 GMT 55.221863 -4.486057 6,925 169 187 128
2019-10-20 12:35:18 GMT 55.224884 -4.487026 6,900 172 187 192
2019-10-20 12:35:15 GMT 55.227539 -4.487673 6,900 174 187 0
2019-10-20 12:35:12 GMT 55.230606 -4.488077 6,900 178 188 -64
2019-10-20 12:35:08 GMT 55.234650 -4.488165 6,900 183 188 0
2019-10-20 12:35:03 GMT 55.238003 -4.487832 6,900 186 187 0
2019-10-20 12:35:00 GMT 55.241455 -4.487107 6,900 192 188 0
2019-10-20 12:34:57 GMT 55.243633 -4.486500 6,900 192 188 0
2019-10-20 12:34:54 GMT 55.245483 -4.485815 6,900 194 188 0
2019-10-20 12:34:51 GMT 55.248367 -4.484522 6,900 195 188 0
2019-10-20 12:34:48 GMT 55.250885 -4.483068 6,900 201 187 0
2019-10-20 12:34:44 GMT 55.253922 -4.481090 6,900 204 188 64
2019-10-20 12:34:41 GMT 55.256714 -4.479009 6,900 206 187 64
2019-10-20 12:34:37 GMT 55.259182 -4.476762 6,900 210 187 64
2019-10-20 12:34:31 GMT 55.264256 -4.471352 6,900 216 187 192
2019-10-20 12:34:28 GMT 55.266117 -4.468939 6,875 219 187 64
2019-10-20 12:34:25 GMT 55.267868 -4.466508 6,875 221 187 0
2019-10-20 12:34:20 GMT 55.271210 -4.461176 6,875 226 186 0
2019-10-20 12:34:17 GMT 55.273361 -4.457299 6,875 230 186 0
2019-10-20 12:34:12 GMT 55.275925 -4.451967 6,875 234 186 64
2019-10-20 12:34:09 GMT 55.277985 -4.446959 6,875 238 186 64
2019-10-20 12:34:00 GMT 55.281342 -4.436729 6,850 244 186 128
2019-10-20 12:33:55 GMT 55.283157 -4.429833 6,850 248 186 64
2019-10-20 12:33:52 GMT 55.284073 -4.425471 6,850 253 186 0
2019-10-20 12:33:49 GMT 55.284695 -4.422080 6,850 255 186 64
2019-10-20 12:33:46 GMT 55.285583 -4.416342 6,850 257 185 0
2019-10-20 12:33:39 GMT 55.286591 -4.407376 6,850 262 185 -64
2019-10-20 12:33:35 GMT 55.287159 -4.399691 6,850 263 186 128
2019-10-20 12:33:29 GMT 55.287689 -4.392431 6,850 263 187 64
2019-10-20 12:33:25 GMT 55.288139 -4.385875 6,850 264 187 -128
2019-10-20 12:33:21 GMT 55.288555 -4.379217 6,850 264 186 -192
2019-10-20 12:33:18 GMT 55.288975 -4.373058 6,875 264 186 -192
2019-10-20 12:33:15 GMT 55.289200 -4.369731 6,875 264 186 0
2019-10-20 12:33:09 GMT 55.289719 -4.361156 6,850 264 189 192
2019-10-20 12:33:06 GMT 55.289951 -4.357244 6,825 264 191 0
2019-10-20 12:33:03 GMT 55.290234 -4.353000 6,850 264 191 -128
2019-10-20 12:33:00 GMT 55.290604 -4.347590 6,850 264 191 -448
2019-10-20 12:32:57 GMT 55.290939 -4.342023 6,875 264 191 -384
2019-10-20 12:32:54 GMT 55.291214 -4.337015 6,900 265 192 -128
2019-10-20 12:32:48 GMT 55.291672 -4.329906 6,900 265 192 -128
2019-10-20 12:32:45 GMT 55.292038 -4.323443 6,900 265 192 64
2019-10-20 12:32:38 GMT 55.292633 -4.313426 6,900 265 193 64
2019-10-20 12:32:34 GMT 55.292999 -4.307852 6,900 264 194 -128
2019-10-20 12:32:28 GMT 55.293594 -4.297835 6,900 264 194 0
2019-10-20 12:32:24 GMT 55.294006 -4.291777 6,900 264 195 64
2019-10-20 12:32:17 GMT 55.294693 -4.281356 6,900 264 195 -64
2019-10-20 12:32:13 GMT 55.295773 -4.265192 6,900 264 195 0
2019-10-20 12:32:07 GMT 55.295773 -4.265192 6,900 264 196 64
2019-10-20 12:32:04 GMT 55.296146 -4.259366 6,900 264 197 64
2019-10-20 12:31:59 GMT 55.296616 -4.252355 6,900 264 198 0
2019-10-20 12:31:56 GMT 55.296936 -4.247464 6,900 264 198 -64
2019-10-20 12:31:53 GMT 55.297260 -4.242637 6,900 264 199 0
2019-10-20 12:31:46 GMT 55.298264 -4.226747 6,900 264 203 64
2019-10-20 12:31:36 GMT 55.298985 -4.215504 6,900 264 205 64
2019-10-20 12:31:33 GMT 55.299316 -4.210187 6,900 264 206 -64
2019-10-20 12:31:26 GMT 55.300472 -4.192200 6,900 264 208 -128
2019-10-20 12:31:22 GMT 55.300472 -4.192200 6,900 264 208 -64
2019-10-20 12:31:15 GMT 55.301220 -4.179882 6,900 264 209 0
2019-10-20 12:31:12 GMT 55.301544 -4.174721 6,900 264 209 0
2019-10-20 12:31:04 GMT 55.302475 -4.159941 6,900 264 212 64
2019-10-20 12:30:55 GMT 55.303253 -4.147258 6,900 264 214 0
2019-10-20 12:30:52 GMT 55.303665 -4.140876 6,900 264 215 -64
2019-10-20 12:30:45 GMT 55.304535 -4.127628 6,925 264 218 -64
2019-10-20 12:30:41 GMT 55.304810 -4.122862 6,925 264 218 -64
2019-10-20 12:30:34 GMT 55.305634 -4.110583 6,925 264 222 64
2019-10-20 12:30:31 GMT 55.306107 -4.103560 6,900 264 223 192
2019-10-20 12:30:24 GMT 55.306759 -4.092324 6,900 264 224 -64
2019-10-20 12:30:21 GMT 55.307178 -4.085333 6,900 264 224 0
2019-10-20 12:30:14 GMT 55.307968 -4.072939 6,900 264 224 0
2019-10-20 12:30:10 GMT 55.308334 -4.067365 6,900 264 224 0
2019-10-20 12:30:02 GMT 55.309296 -4.051370 6,900 265 223 -64
2019-10-20 12:29:59 GMT 55.309570 -4.046281 6,900 264 221 0
2019-10-20 12:29:53 GMT 55.310165 -4.035941 6,900 265 222 64
2019-10-20 12:29:50 GMT 55.310577 -4.029652 6,900 264 222 0
2019-10-20 12:29:43 GMT 55.311356 -4.017361 6,900 264 221 -64
2019-10-20 12:29:38 GMT 55.311905 -4.008071 6,900 264 221 0
2019-10-20 12:29:33 GMT 55.312439 -4.000105 6,900 264 221 0
2019-10-20 12:29:30 GMT 55.312866 -3.994177 6,900 264 221 0
2019-10-20 12:29:26 GMT 55.313232 -3.988279 6,900 264 221 0
2019-10-20 12:29:21 GMT 55.313927 -3.978050 6,900 264 221 64
2019-10-20 12:29:18 GMT 55.314377 -3.971638 6,900 264 222 64
2019-10-20 12:29:13 GMT 55.314835 -3.964530 6,900 264 223 64
2019-10-20 12:29:10 GMT 55.315140 -3.959905 6,900 264 223 -64
2019-10-20 12:29:07 GMT 55.315601 -3.953164 6,900 264 224 64
2019-10-20 12:29:00 GMT 55.316391 -3.941264 6,900 264 225 0
2019-10-20 12:28:57 GMT 55.316769 -3.935519 6,900 264 227 -64
2019-10-20 12:28:51 GMT 55.317417 -3.924616 6,900 264 227 -64
2019-10-20 12:28:46 GMT 55.317993 -3.915010 6,900 264 228 0
2019-10-20 12:28:43 GMT 55.318268 -3.910729 6,900 264 228 0
2019-10-20 12:28:40 GMT 55.318676 -3.904308 6,900 264 228 -128
2019-10-20 12:28:36 GMT 55.319187 -3.895735 6,900 264 229 0
2019-10-20 12:28:28 GMT 55.320007 -3.881647 6,900 264 229 -64
2019-10-20 12:28:25 GMT 55.320328 -3.876962 6,900 264 229 0
2019-10-20 12:28:20 GMT 55.320969 -3.866945 6,900 264 229 64
2019-10-20 12:28:17 GMT 55.321289 -3.862098 6,900 264 229 64
2019-10-20 12:28:14 GMT 55.321609 -3.857117 6,900 264 229 0
2019-10-20 12:28:07 GMT 55.322586 -3.842551 6,900 263 229 0
2019-10-20 12:28:04 GMT 55.322891 -3.838429 6,900 263 229 0
2019-10-20 12:27:57 GMT 55.323853 -3.824615 6,900 263 230 0
2019-10-20 12:27:54 GMT 55.324265 -3.819526 6,900 263 230 -64
2019-10-20 12:27:48 GMT 55.325089 -3.807813 6,900 264 230 -64
2019-10-20 12:27:44 GMT 55.325565 -3.800770 6,900 264 230 -64
2019-10-20 12:27:37 GMT 55.326450 -3.787204 6,925 264 229 -64
2019-10-20 12:27:33 GMT 55.326920 -3.780347 6,925 264 229 0
2019-10-20 12:27:26 GMT 55.327835 -3.766695 6,900 264 229 0
2019-10-20 12:27:23 GMT 55.328175 -3.761735 6,900 264 229 0
2019-10-20 12:27:16 GMT 55.329010 -3.748585 6,900 264 229 0
2019-10-20 12:27:13 GMT 55.329384 -3.742925 6,900 264 229 0
2019-10-20 12:27:06 GMT 55.330261 -3.730020 6,900 264 229 0
2019-10-20 12:27:02 GMT 55.330780 -3.722701 6,900 263 229 -64
2019-10-20 12:26:55 GMT 55.331665 -3.709883 6,900 263 229 64
2019-10-20 12:26:52 GMT 55.332222 -3.702226 6,900 263 229 -64
2019-10-20 12:26:44 GMT 55.333054 -3.690841 6,900 263 229 64
2019-10-20 12:26:40 GMT 55.333668 -3.682667 6,900 263 230 -64
2019-10-20 12:26:34 GMT 55.334457 -3.671930 6,900 263 229 64
2019-10-20 12:26:30 GMT 55.334969 -3.665106 6,900 263 229 64
2019-10-20 12:26:24 GMT 55.335854 -3.652871 6,900 263 229 128
2019-10-20 12:26:21 GMT 55.336319 -3.646462 6,900 264 230 0
2019-10-20 12:26:15 GMT 55.337112 -3.635060 6,900 263 229 0
2019-10-20 12:26:10 GMT 55.337761 -3.626653 6,900 263 229 0
2019-10-20 12:26:03 GMT 55.338684 -3.614260 6,900 263 228 0
2019-10-20 12:26:00 GMT 55.339111 -3.608343 6,900 263 228 -128
2019-10-20 12:25:54 GMT 55.339920 -3.597134 6,925 263 227 -256
2019-10-20 12:25:50 GMT 55.340462 -3.589866 6,925 263 227 -192
2019-10-20 12:25:44 GMT 55.341347 -3.578131 6,925 263 227 192
2019-10-20 12:25:40 GMT 55.341888 -3.570799 6,925 263 228 128
2019-10-20 12:25:32 GMT 55.342850 -3.558197 6,925 262 227 -192
2019-10-20 12:25:29 GMT 55.343349 -3.551996 6,925 262 226 0
2019-10-20 12:25:22 GMT 55.344418 -3.538680 6,925 263 226 64
2019-10-20 12:25:18 GMT 55.344933 -3.532104 6,925 262 225 0
2019-10-20 12:25:12 GMT 55.345779 -3.521684 6,925 262 225 64
2019-10-20 12:25:09 GMT 55.346375 -3.514898 6,925 262 224 64
2019-10-20 12:25:04 GMT 55.347107 -3.506174 6,925 262 224 128
2019-10-20 12:25:01 GMT 55.347519 -3.501327 6,925 262 223 64
2019-10-20 12:24:58 GMT 55.347958 -3.495900 6,925 262 223 64
2019-10-20 12:24:50 GMT 55.349121 -3.482500 6,900 262 225 192
2019-10-20 12:24:47 GMT 55.349632 -3.476507 6,900 262 225 256
2019-10-20 12:24:43 GMT 55.350330 -3.468267 6,900 262 226 0
2019-10-20 12:24:40 GMT 55.350723 -3.463521 6,900 262 226 -128
2019-10-20 12:24:37 GMT 55.351170 -3.457780 6,900 262 225 -192
2019-10-20 12:24:30 GMT 55.352371 -3.443325 6,900 263 225 0
2019-10-20 12:24:27 GMT 55.352646 -3.439771 6,900 263 224 -128
2019-10-20 12:24:20 GMT 55.353683 -3.426736 6,925 262 221 -128
2019-10-20 12:24:17 GMT 55.354111 -3.421433 6,925 262 221 -64
2019-10-20 12:24:09 GMT 55.355171 -3.407926 6,925 262 220 0
2019-10-20 12:24:06 GMT 55.355545 -3.403598 6,925 262 220 64
2019-10-20 12:24:02 GMT 55.356197 -3.395608 6,925 262 221 128
2019-10-20 12:23:58 GMT 55.356804 -3.388450 6,925 262 221 128
2019-10-20 12:23:55 GMT 55.357224 -3.383547 6,900 262 221 64
2019-10-20 12:23:52 GMT 55.357727 -3.378054 6,900 262 222 64
2019-10-20 12:23:49 GMT 55.358150 -3.372553 6,900 263 222 -64
2019-10-20 12:23:46 GMT 55.358643 -3.366502 6,900 263 222 -64
2019-10-20 12:23:42 GMT 55.359081 -3.360568 6,900 263 221 -64
2019-10-20 12:23:39 GMT 55.359558 -3.354627 6,925 262 221 -128
2019-10-20 12:23:36 GMT 55.360062 -3.348333 6,925 263 220 -128
2019-10-20 12:23:29 GMT 55.361481 -3.330069 6,900 262 220 64
2019-10-20 12:23:25 GMT 55.361481 -3.330069 6,900 262 220 64
2019-10-20 12:23:19 GMT 55.362396 -3.318760 6,900 262 220 64
2019-10-20 12:23:15 GMT 55.362946 -3.312461 6,900 262 220 0
2019-10-20 12:23:12 GMT 55.363449 -3.306158 6,900 262 220 0
2019-10-20 12:23:09 GMT 55.363815 -3.301876 6,900 262 220 64
2019-10-20 12:23:05 GMT 55.364624 -3.292902 6,900 262 220 -64
2019-10-20 12:23:01 GMT 55.365097 -3.287416 6,900 262 220 0
2019-10-20 12:22:57 GMT 55.365646 -3.280954 6,900 262 220 -64
2019-10-20 12:22:54 GMT 55.366158 -3.274841 6,900 262 221 0
2019-10-20 12:22:51 GMT 55.366577 -3.269598 6,900 262 221 0
2019-10-20 12:22:47 GMT 55.367157 -3.262859 6,900 262 221 0
2019-10-20 12:22:41 GMT 55.368114 -3.251703 6,900 262 221 -64
2019-10-20 12:22:37 GMT 55.368626 -3.245794 6,900 262 222 -64
2019-10-20 12:22:31 GMT 55.369652 -3.234225 6,900 262 222 -64
2019-10-20 12:22:27 GMT 55.370178 -3.227880 6,900 262 222 -64
2019-10-20 12:22:24 GMT 55.371094 -3.217163 6,900 262 222 0
2019-10-20 12:22:21 GMT 55.371094 -3.217163 6,900 262 222 0
2019-10-20 12:22:16 GMT 55.371933 -3.207092 6,900 262 222 0
2019-10-20 12:22:11 GMT 55.372723 -3.198187 6,900 261 222 64
2019-10-20 12:22:06 GMT 55.373703 -3.187651 6,900 261 222 64
2019-10-20 12:22:02 GMT 55.374710 -3.176503 6,900 261 222 0
2019-10-20 12:21:59 GMT 55.374710 -3.176503 6,900 260 222 -64
2019-10-20 12:21:56 GMT 55.375095 -3.172136 6,900 261 222 0
2019-10-20 12:21:51 GMT 55.376167 -3.161815 6,900 259 222 -64
2019-10-20 12:21:47 GMT 55.376862 -3.155580 6,900 258 223 -64
2019-10-20 12:21:44 GMT 55.377377 -3.151828 6,925 255 223 -192
2019-10-20 12:21:40 GMT 55.378784 -3.143221 6,925 253 223 -128
2019-10-20 12:21:36 GMT 55.380112 -3.136516 6,925 243 228 128
2019-10-20 12:21:31 GMT 55.382126 -3.127858 6,925 245 226 0
2019-10-20 12:21:27 GMT 55.384174 -3.120450 6,925 244 227 64
2019-10-20 12:21:20 GMT 55.386932 -3.111070 6,900 243 228 128
2019-10-20 12:21:16 GMT 55.389202 -3.103388 6,900 243 229 192
2019-10-20 12:21:13 GMT 55.390366 -3.099275 6,900 243 229 192
2019-10-20 12:21:10 GMT 55.392014 -3.093863 6,875 242 229 192
2019-10-20 12:21:07 GMT 55.393764 -3.088157 6,875 242 230 192
2019-10-20 12:21:04 GMT 55.394836 -3.084578 6,875 241 229 64
2019-10-20 12:20:59 GMT 55.397442 -3.076505 6,875 236 230 128
2019-10-20 12:20:56 GMT 55.399586 -3.070679 6,875 221 233 -64
2019-10-20 12:20:53 GMT 55.401165 -3.066850 6,875 221 233 -64
2019-10-20 12:20:50 GMT 55.403503 -3.061631 6,850 230 232 0
2019-10-20 12:20:46 GMT 55.406193 -3.056280 6,850 226 232 0
2019-10-20 12:20:42 GMT 55.409271 -3.050806 6,850 225 233 0
2019-10-20 12:20:39 GMT 55.411686 -3.046875 6,850 220 234 -64
2019-10-20 12:20:36 GMT 55.414764 -3.042486 6,850 218 234 0
2019-10-20 12:20:33 GMT 55.416550 -3.040062 6,875 207 236 192
2019-10-20 12:20:29 GMT 55.420074 -3.035781 6,875 209 235 128
2019-10-20 12:20:25 GMT 55.424118 -3.031561 6,850 209 235 128
2019-10-20 12:20:22 GMT 55.426483 -3.029318 6,850 207 236 192
2019-10-20 12:20:19 GMT 55.429935 -3.026400 6,850 204 236 128
2019-10-20 12:20:15 GMT 55.434036 -3.023341 6,850 200 236 0
2019-10-20 12:20:08 GMT 55.441589 -3.018898 6,850 195 235 -192
2019-10-20 12:20:05 GMT 55.445480 -3.017162 6,875 192 234 -64
2019-10-20 12:19:58 GMT 55.451164 -3.015146 6,875 189 235 0
2019-10-20 12:19:52 GMT 55.457977 -3.013750 6,850 185 235 64
2019-10-20 12:19:48 GMT 55.463688 -3.013258 6,850 177 236 0
2019-10-20 12:19:44 GMT 55.469696 -3.013583 6,850 168 235 128
2019-10-20 12:19:37 GMT 55.474670 -3.014374 6,850 171 235 128
2019-10-20 12:19:31 GMT 55.480820 -3.016163 6,850 168 235 128
2019-10-20 12:19:27 GMT 55.484619 -3.017661 6,825 164 235 192
2019-10-20 12:19:21 GMT 55.490982 -3.020991 6,850 139 232 -64
2019-10-20 12:19:16 GMT 55.496227 -3.024502 6,850 155 233 -128
2019-10-20 12:19:10 GMT 55.501858 -3.029222 6,850 151 233 -256
2019-10-20 12:19:06 GMT 55.508514 -3.036089 6,950 119 223 -128
2019-10-20 12:19:00 GMT 55.511265 -3.039436 6,950 119 223 -128
2019-10-20 12:18:56 GMT 55.514236 -3.043296 6,875 141 231 64
2019-10-20 12:18:53 GMT 55.517166 -3.047541 6,875 139 232 0
2019-10-20 12:18:49 GMT 55.520016 -3.051968 6,875 136 230 -128
2019-10-20 12:18:46 GMT 55.522430 -3.056197 6,900 133 229 -192
2019-10-20 12:18:42 GMT 55.525589 -3.062273 6,900 130 228 -256
2019-10-20 12:18:39 GMT 55.527138 -3.065529 6,925 128 227 -256
2019-10-20 12:18:36 GMT 55.529278 -3.070421 6,925 125 226 -192
2019-10-20 12:18:30 GMT 55.532776 -3.079584 6,950 119 223 -128
2019-10-20 12:18:27 GMT 55.534973 -3.086159 6,950 117 223 -64
2019-10-20 12:18:23 GMT 55.536896 -3.092818 6,950 114 222 -64
2019-10-20 12:18:19 GMT 55.538216 -3.098059 6,950 111 222 -128
2019-10-20 12:18:15 GMT 55.539566 -3.103981 6,975 109 221 -128
2019-10-20 12:18:12 GMT 55.540649 -3.109630 6,975 106 219 -128
2019-10-20 12:18:08 GMT 55.541702 -3.116122 6,975 103 219 -64
2019-10-20 12:18:05 GMT 55.542454 -3.121834 6,975 101 218 0
2019-10-20 12:18:02 GMT 55.542984 -3.126942 6,975 98 218 0
2019-10-20 12:17:58 GMT 55.543850 -3.139429 6,975 92 217 0
2019-10-20 12:17:55 GMT 55.543850 -3.139429 6,975 92 217 0
2019-10-20 12:17:52 GMT 55.543987 -3.144836 6,975 90 217 64
2019-10-20 12:17:48 GMT 55.543941 -3.151789 6,975 84 216 -64
2019-10-20 12:17:45 GMT 55.543709 -3.158054 6,975 84 216 -64
2019-10-20 12:17:37 GMT 55.542641 -3.171530 6,975 76 215 64
2019-10-20 12:17:34 GMT 55.542034 -3.176336 6,975 75 214 64
2019-10-20 12:17:29 GMT 55.540588 -3.185263 6,975 66 215 0
2019-10-20 12:17:26 GMT 55.539612 -3.190241 6,975 67 214 0
2019-10-20 12:17:21 GMT 55.537811 -3.197937 6,975 64 214 -64
2019-10-20 12:17:17 GMT 55.536301 -3.203430 6,975 63 215 0
2019-10-20 12:17:14 GMT 55.534634 -3.209295 6,975 62 215 64
2019-10-20 12:17:09 GMT 55.532593 -3.216081 6,950 62 215 192
2019-10-20 12:17:06 GMT 55.531219 -3.220825 6,950 62 216 128
2019-10-20 12:17:03 GMT 55.529930 -3.225260 6,950 62 216 64
2019-10-20 12:17:00 GMT 55.528702 -3.229398 6,950 62 216 64
2019-10-20 12:16:56 GMT 55.526505 -3.236972 6,950 62 216 0
2019-10-20 12:16:53 GMT 55.525131 -3.241549 6,950 62 216 0
2019-10-20 12:16:48 GMT 55.522842 -3.249373 6,925 62 216 0
2019-10-20 12:16:45 GMT 55.521503 -3.253927 6,925 62 216 64
2019-10-20 12:16:42 GMT 55.520294 -3.257961 6,925 62 216 64
2019-10-20 12:16:37 GMT 55.517689 -3.266716 6,925 62 216 -64
2019-10-20 12:16:33 GMT 55.516159 -3.271928 6,925 62 216 -64
2019-10-20 12:16:30 GMT 55.514568 -3.277359 6,950 62 216 -192
2019-10-20 12:16:25 GMT 55.512039 -3.285911 6,950 62 216 -256
2019-10-20 12:16:22 GMT 55.510937 -3.289633 6,975 62 216 -256
2019-10-20 12:16:17 GMT 55.508606 -3.297563 6,975 62 215 -192
2019-10-20 12:16:14 GMT 55.507492 -3.301392 7,000 62 215 -64
2019-10-20 12:16:11 GMT 55.505997 -3.306385 7,000 62 215 0
2019-10-20 12:16:07 GMT 55.503769 -3.313837 7,000 62 215 64
2019-10-20 12:16:04 GMT 55.502789 -3.317099 6,975 62 215 64
2019-10-20 12:16:01 GMT 55.501373 -3.321949 6,975 62 215 64
2019-10-20 12:15:57 GMT 55.498764 -3.330605 6,975 62 216 64
2019-10-20 12:15:54 GMT 55.497856 -3.333664 6,975 62 216 128
2019-10-20 12:15:51 GMT 55.496693 -3.337612 6,975 62 216 64
2019-10-20 12:15:48 GMT 55.495102 -3.342840 6,975 61 216 0
2019-10-20 12:15:45 GMT 55.493774 -3.347334 6,975 62 216 0
2019-10-20 12:15:41 GMT 55.491802 -3.353834 6,975 62 215 -256
2019-10-20 12:15:38 GMT 55.490387 -3.358570 6,975 62 214 -192
2019-10-20 12:15:35 GMT 55.489334 -3.361983 7,000 62 214 -128
2019-10-20 12:15:31 GMT 55.486908 -3.370223 7,000 62 214 -128
2019-10-20 12:15:26 GMT 55.483658 -3.381214 7,000 62 212 -128
2019-10-20 12:15:19 GMT 55.482056 -3.386619 7,025 62 212 -128
2019-10-20 12:15:15 GMT 55.479980 -3.393745 7,025 62 211 0
2019-10-20 12:15:11 GMT 55.478439 -3.398937 7,025 62 211 64
2019-10-20 12:15:08 GMT 55.477234 -3.403101 7,025 62 211 128
2019-10-20 12:15:05 GMT 55.475647 -3.408508 7,000 62 212 192
2019-10-20 12:15:02 GMT 55.474274 -3.413169 7,000 62 211 192
2019-10-20 12:14:59 GMT 55.472992 -3.417580 7,000 62 212 192
2019-10-20 12:14:55 GMT 55.471043 -3.424301 6,975 62 212 128
2019-10-20 12:14:51 GMT 55.469284 -3.430314 6,975 62 212 64
2019-10-20 12:14:48 GMT 55.468109 -3.434172 6,975 62 212 64
2019-10-20 12:14:43 GMT 55.465576 -3.442799 6,975 62 212 64
2019-10-20 12:14:40 GMT 55.464382 -3.446703 6,950 62 213 0
2019-10-20 12:14:34 GMT 55.459682 -3.462753 6,975 62 212 -64
2019-10-20 12:14:31 GMT 55.459682 -3.462753 6,975 62 212 -64
2019-10-20 12:14:27 GMT 55.458519 -3.466616 6,975 62 212 -128
2019-10-20 12:14:23 GMT 55.455261 -3.477774 6,975 62 211 -192
2019-10-20 12:14:20 GMT 55.455261 -3.477774 7,000 62 211 -128
2019-10-20 12:14:15 GMT 55.452896 -3.485746 7,000 62 211 64
2019-10-20 12:14:11 GMT 55.451397 -3.490992 7,000 62 212 128
2019-10-20 12:14:08 GMT 55.449581 -3.497000 6,975 62 212 128
2019-10-20 12:14:02 GMT 55.447021 -3.505840 6,975 62 212 -64
2019-10-20 12:13:59 GMT 55.445847 -3.509799 6,975 62 213 0
2019-10-20 12:13:52 GMT 55.442226 -3.522034 7,000 62 210 -64
2019-10-20 12:13:48 GMT 55.441132 -3.525804 7,000 62 211 -192
2019-10-20 12:13:41 GMT 55.436371 -3.541718 7,025 61 210 -64
2019-10-20 12:13:38 GMT 55.436371 -3.541718 7,025 61 210 -64
2019-10-20 12:13:32 GMT 55.433578 -3.550927 7,025 62 210 -64
2019-10-20 12:13:28 GMT 55.431705 -3.557323 7,025 62 210 -64
2019-10-20 12:13:22 GMT 55.429276 -3.565387 7,025 62 210 -64
2019-10-20 12:13:19 GMT 55.427490 -3.571284 7,025 62 210 0
2019-10-20 12:13:14 GMT 55.425247 -3.578877 7,025 62 211 0
2019-10-20 12:13:10 GMT 55.423782 -3.583643 7,025 61 210 64
2019-10-20 12:13:07 GMT 55.422455 -3.588167 7,025 62 211 -64
2019-10-20 12:13:01 GMT 55.419460 -3.598106 7,025 62 211 0
2019-10-20 12:12:58 GMT 55.417973 -3.603016 7,025 62 211 64
2019-10-20 12:12:53 GMT 55.414444 -3.614744 7,025 62 212 0
2019-10-20 12:12:50 GMT 55.414444 -3.614744 7,025 62 212 64
2019-10-20 12:12:47 GMT 55.413269 -3.618663 7,025 62 212 -64
2019-10-20 12:12:44 GMT 55.411736 -3.623907 7,025 62 212 0
2019-10-20 12:12:40 GMT 55.410057 -3.629567 7,025 62 212 0
2019-10-20 12:12:36 GMT 55.406891 -3.640137 7,025 62 212 0
2019-10-20 12:12:30 GMT 55.405540 -3.644631 7,025 62 212 0
2019-10-20 12:12:26 GMT 55.403503 -3.651581 7,025 62 213 0
2019-10-20 12:12:23 GMT 55.402451 -3.655054 7,025 62 213 0
2019-10-20 12:12:20 GMT 55.400700 -3.660861 7,025 62 213 -64
2019-10-20 12:12:16 GMT 55.399025 -3.666604 7,050 61 212 64
2019-10-20 12:12:13 GMT 55.397507 -3.671534 7,025 62 212 0
2019-10-20 12:12:10 GMT 55.396088 -3.676219 7,025 62 212 -64
2019-10-20 12:12:06 GMT 55.394371 -3.681918 7,050 62 212 0
2019-10-20 12:12:02 GMT 55.392426 -3.688498 7,050 62 212 64
2019-10-20 12:11:59 GMT 55.390553 -3.694735 7,050 62 211 0
2019-10-20 12:11:53 GMT 55.388397 -3.701908 7,050 61 212 0
2019-10-20 12:11:49 GMT 55.386688 -3.707470 7,050 62 211 0
2019-10-20 12:11:44 GMT 55.384598 -3.714429 7,025 62 212 64
2019-10-20 12:11:41 GMT 55.383011 -3.719621 7,025 62 212 0
2019-10-20 12:11:38 GMT 55.381428 -3.724948 7,025 62 212 0
2019-10-20 12:11:31 GMT 55.378418 -3.734948 7,025 62 213 64
2019-10-20 12:11:28 GMT 55.377045 -3.739471 7,025 62 213 0
2019-10-20 12:11:24 GMT 55.374710 -3.747388 7,025 62 213 -64
2019-10-20 12:11:20 GMT 55.373188 -3.752497 7,025 62 214 0
2019-10-20 12:11:13 GMT 55.370041 -3.762979 7,025 62 214 -64
2019-10-20 12:11:09 GMT 55.368301 -3.768876 7,050 62 214 -64
2019-10-20 12:11:02 GMT 55.365051 -3.779701 7,025 62 215 64
2019-10-20 12:10:58 GMT 55.363415 -3.785206 7,025 62 215 0
2019-10-20 12:10:52 GMT 55.360294 -3.795610 7,025 57 215 -128
2019-10-20 12:10:49 GMT 55.358871 -3.800462 7,025 57 215 -128
2019-10-20 12:10:41 GMT 55.355576 -3.811771 7,025 62 216 0
2019-10-20 12:10:38 GMT 55.354248 -3.816295 7,025 57 215 -128
2019-10-20 12:10:32 GMT 55.350815 -3.827039 7,025 57 215 -128
2019-10-20 12:10:28 GMT 55.348797 -3.832564 7,025 54 214 -128
2019-10-20 12:10:20 GMT 55.343952 -3.843717 7,050 46 214 0
2019-10-20 12:10:16 GMT 55.341721 -3.848211 7,025 47 214 0
2019-10-20 12:10:11 GMT 55.337994 -3.855119 7,050 46 215 0
2019-10-20 12:10:08 GMT 55.336227 -3.858448 7,050 46 215 0
2019-10-20 12:10:00 GMT 55.330826 -3.868436 7,050 46 214 0
2019-10-20 12:09:57 GMT 55.328796 -3.872196 7,050 46 215 0
2019-10-20 12:09:50 GMT 55.322021 -3.884556 7,025 45 214 64
2019-10-20 12:09:40 GMT 55.314560 -3.898127 7,025 46 215 0
2019-10-20 12:09:30 GMT 55.309597 -3.907221 7,025 46 215 0
2019-10-20 12:09:27 GMT 55.304123 -3.917272 7,025 46 216 0
2019-10-20 12:09:21 GMT 55.304123 -3.917272 7,025 46 215 0
2019-10-20 12:09:18 GMT 55.301311 -3.922369 7,025 46 217 -64
2019-10-20 12:09:09 GMT 55.293350 -3.936934 7,025 46 216 -64
2019-10-20 12:09:03 GMT 55.291584 -3.940180 7,025 46 216 0
2019-10-20 12:08:58 GMT 55.287437 -3.947754 7,050 46 215 -64
2019-10-20 12:08:55 GMT 55.281143 -3.959440 7,050 46 217 0
2019-10-20 12:08:49 GMT 55.281143 -3.959440 7,050 46 215 -64
2019-10-20 12:08:46 GMT 55.279526 -3.962402 7,025 46 215 -64
2019-10-20 12:08:41 GMT 55.276016 -3.968973 7,050 46 215 -128
2019-10-20 12:08:38 GMT 55.274311 -3.972140 7,050 46 215 -64
2019-10-20 12:08:35 GMT 55.272263 -3.976001 7,050 46 215 64
2019-10-20 12:08:30 GMT 55.268829 -3.982382 7,050 46 216 64
2019-10-20 12:08:27 GMT 55.267143 -3.985457 7,000 46 217 0
2019-10-20 12:08:24 GMT 55.264629 -3.990035 7,025 46 217 0
2019-10-20 12:08:18 GMT 55.260254 -3.998108 7,000 45 219 192
2019-10-20 12:08:13 GMT 55.256790 -4.004274 7,025 45 219 320
2019-10-20 12:08:07 GMT 55.252716 -4.011625 7,025 45 223 0
2019-10-20 12:08:04 GMT 55.250885 -4.014857 7,000 45 223 -64
2019-10-20 12:08:01 GMT 55.248322 -4.019461 7,000 46 221 -128
2019-10-20 12:07:57 GMT 55.245438 -4.024631 7,025 46 219 0
2019-10-20 12:07:54 GMT 55.243214 -4.028653 7,025 46 222 -192
2019-10-20 12:07:50 GMT 55.240654 -4.033397 7,025 46 221 -64
2019-10-20 12:07:47 GMT 55.238560 -4.037226 7,050 46 221 0
2019-10-20 12:07:44 GMT 55.236465 -4.041054 7,050 46 220 -64
2019-10-20 12:07:37 GMT 55.231808 -4.049627 7,050 46 219 0
2019-10-20 12:07:34 GMT 55.229015 -4.054704 7,050 46 219 0
2019-10-20 12:07:30 GMT 55.226131 -4.060031 7,025 46 219 64
2019-10-20 12:07:26 GMT 55.223694 -4.064537 7,025 46 219 0
2019-10-20 12:07:23 GMT 55.221680 -4.068253 7,025 46 220 64
2019-10-20 12:07:17 GMT 55.217472 -4.076011 7,050 46 219 -256
2019-10-20 12:07:13 GMT 55.213943 -4.082471 7,050 46 219 -64
2019-10-20 12:07:10 GMT 55.212399 -4.085333 7,050 46 219 -64
2019-10-20 12:07:06 GMT 55.209915 -4.089903 7,050 46 219 0
2019-10-20 12:07:03 GMT 55.207672 -4.094023 7,050 46 219 -64
2019-10-20 12:07:00 GMT 55.205227 -4.098566 7,050 46 218 128
2019-10-20 12:06:56 GMT 55.202957 -4.102667 7,050 46 218 128
2019-10-20 12:06:53 GMT 55.200619 -4.106972 7,050 46 217 64
2019-10-20 12:06:49 GMT 55.198105 -4.111633 7,050 46 216 64
2019-10-20 12:06:46 GMT 55.196091 -4.115268 7,050 46 215 0
2019-10-20 12:06:42 GMT 55.193024 -4.120923 7,050 46 216 64
2019-10-20 12:06:39 GMT 55.191284 -4.124154 7,025 47 216 64
2019-10-20 12:06:36 GMT 55.188934 -4.128612 7,025 47 217 0
2019-10-20 12:06:32 GMT 55.186249 -4.133768 7,025 47 217 0
2019-10-20 12:06:27 GMT 55.183022 -4.139848 7,025 47 217 0
2019-10-20 12:06:22 GMT 55.179291 -4.146935 7,025 47 217 -64
2019-10-20 12:06:18 GMT 55.176830 -4.151584 7,050 47 217 -64
2019-10-20 12:06:15 GMT 55.174690 -4.155662 7,050 47 218 0
2019-10-20 12:06:12 GMT 55.172379 -4.160022 7,050 47 218 0
2019-10-20 12:06:09 GMT 55.170406 -4.163735 7,025 47 218 64
2019-10-20 12:06:05 GMT 55.165283 -4.173351 7,050 47 218 -64
2019-10-20 12:06:01 GMT 55.165283 -4.173351 7,050 46 217 -64
2019-10-20 12:05:58 GMT 55.163006 -4.177634 7,050 47 217 0
2019-10-20 12:05:55 GMT 55.160706 -4.181913 7,025 47 217 0
2019-10-20 12:05:52 GMT 55.158600 -4.185791 7,025 46 217 0
2019-10-20 12:05:47 GMT 55.154625 -4.193115 7,025 46 216 0
2019-10-20 12:05:42 GMT 55.151459 -4.198941 7,025 46 217 64
2019-10-20 12:05:34 GMT 55.146896 -4.207264 7,025 46 215 0
2019-10-20 12:05:31 GMT 55.144569 -4.211509 7,025 46 215 -64
2019-10-20 12:05:22 GMT 55.138287 -4.223328 7,050 47 214 -128
2019-10-20 12:05:19 GMT 55.136562 -4.226574 7,050 47 214 -128
2019-10-20 12:05:16 GMT 55.133816 -4.231817 7,050 46 213 64
2019-10-20 12:05:11 GMT 55.130676 -4.237653 7,050 46 213 64
2019-10-20 12:05:07 GMT 55.127670 -4.243220 7,025 46 213 128
2019-10-20 12:05:01 GMT 55.123856 -4.250211 7,025 46 211 0
2019-10-20 12:04:55 GMT 55.120270 -4.256786 7,025 49 207 0
2019-10-20 12:04:52 GMT 55.118454 -4.260110 7,025 46 211 64
2019-10-20 12:04:49 GMT 55.116127 -4.264443 7,025 46 210 -64
2019-10-20 12:04:45 GMT 55.113705 -4.268938 7,050 47 209 -320
2019-10-20 12:04:42 GMT 55.111797 -4.272600 7,075 47 208 -384
2019-10-20 12:04:39 GMT 55.109562 -4.276928 7,075 48 208 -256
2019-10-20 12:04:35 GMT 55.107010 -4.282245 7,075 54 209 192
2019-10-20 12:04:32 GMT 55.105499 -4.285476 7,075 53 208 256
2019-10-20 12:04:29 GMT 55.103233 -4.291077 7,050 57 209 256
2019-10-20 12:04:25 GMT 55.101089 -4.296986 7,025 59 210 128
2019-10-20 12:04:22 GMT 55.100067 -4.299982 7,025 60 210 64
2019-10-20 12:04:19 GMT 55.098633 -4.304621 7,025 63 211 0
2019-10-20 12:04:16 GMT 55.096756 -4.311407 7,025 67 212 128
2019-10-20 12:04:12 GMT 55.095703 -4.316011 7,025 70 213 192
2019-10-20 12:04:09 GMT 55.094696 -4.320777 7,000 72 213 192
2019-10-20 12:04:05 GMT 55.093506 -4.328209 7,000 75 213 0
2019-10-20 12:04:02 GMT 55.092480 -4.336687 7,000 83 213 128
2019-10-20 12:03:56 GMT 55.092014 -4.342263 7,000 83 213 128
2019-10-20 12:03:49 GMT 55.091499 -4.356662 6,975 90 214 64
2019-10-20 12:03:44 GMT 55.091583 -4.363026 6,975 92 214 192
2019-10-20 12:03:41 GMT 55.092270 -4.374093 6,975 99 215 192
2019-10-20 12:03:38 GMT 55.092270 -4.374093 6,950 100 215 192
2019-10-20 12:03:35 GMT 55.092758 -4.378385 6,950 103 215 192
2019-10-20 12:03:31 GMT 55.094650 -4.390735 6,925 108 216 128
2019-10-20 12:03:28 GMT 55.094650 -4.390735 6,925 109 216 192
2019-10-20 12:03:25 GMT 55.095505 -4.395031 6,925 112 218 192
2019-10-20 12:03:21 GMT 55.097031 -4.401559 6,900 114 217 192
2019-10-20 12:03:18 GMT 55.098160 -4.405767 6,900 118 218 64
2019-10-20 12:03:15 GMT 55.099869 -4.411334 6,900 121 219 -256
2019-10-20 12:03:11 GMT 55.104488 -4.423828 6,950 125 220 -192
2019-10-20 12:03:07 GMT 55.104488 -4.423828 6,925 127 219 -256
2019-10-20 12:03:04 GMT 55.105885 -4.426991 6,950 132 220 -192
2019-10-20 12:03:00 GMT 55.108521 -4.432499 6,950 132 220 -192
2019-10-20 12:02:56 GMT 55.110947 -4.437103 6,975 134 219 -192
2019-10-20 12:02:53 GMT 55.113144 -4.440738 6,975 151 219 64
2019-10-20 12:02:50 GMT 55.115387 -4.444212 6,975 147 218 -64
2019-10-20 12:02:47 GMT 55.118225 -4.448170 6,975 143 218 -64
2019-10-20 12:02:44 GMT 55.120377 -4.450917 7,000 146 218 -64
2019-10-20 12:02:40 GMT 55.123993 -4.454875 7,000 149 218 64
2019-10-20 12:02:37 GMT 55.126602 -4.457460 6,975 153 218 64
2019-10-20 12:02:34 GMT 55.129349 -4.459950 6,975 156 219 64
2019-10-20 12:02:30 GMT 55.133057 -4.462711 6,975 158 219 128
2019-10-20 12:02:27 GMT 55.136215 -4.464811 6,975 163 220 0
2019-10-20 12:02:24 GMT 55.138962 -4.466266 6,975 163 220 0
2019-10-20 12:02:20 GMT 55.143223 -4.468273 6,975 168 221 0
2019-10-20 12:02:15 GMT 55.147877 -4.469771 6,975 173 223 64
2019-10-20 12:02:09 GMT 55.153694 -4.470936 6,975 176 224 64
2019-10-20 12:02:06 GMT 55.156586 -4.471193 6,950 181 225 128
2019-10-20 12:02:03 GMT 55.159790 -4.471112 6,950 184 225 0
2019-10-20 12:01:59 GMT 55.164230 -4.470709 6,950 187 225 -64
2019-10-20 12:01:55 GMT 55.169678 -4.469416 6,950 192 225 64
2019-10-20 12:01:52 GMT 55.174255 -4.467720 6,950 193 225 64
2019-10-20 12:01:49 GMT 55.174255 -4.467720 6,950 195 225 -64
2019-10-20 12:01:46 GMT 55.177872 -4.465942 6,975 200 224 -384
2019-10-20 12:01:42 GMT 55.181213 -4.463923 6,975 200 224 -384
2019-10-20 12:01:39 GMT 55.184555 -4.461661 6,975 204 224 -64
2019-10-20 12:01:35 GMT 55.189362 -4.457945 7,000 208 226 -64
2019-10-20 12:01:28 GMT 55.194443 -4.453179 7,000 212 227 0
2019-10-20 12:01:25 GMT 55.200485 -4.446232 6,975 216 228 64
2019-10-20 12:01:18 GMT 55.203278 -4.442516 6,975 220 229 64
2019-10-20 12:01:13 GMT 55.208130 -4.435165 6,975 225 229 64
2019-10-20 12:01:08 GMT 55.211372 -4.429405 6,975 228 230 -64
2019-10-20 12:01:03 GMT 55.215958 -4.420058 6,975 233 228 128
2019-10-20 12:00:57 GMT 55.218246 -4.414727 6,975 235 229 128
2019-10-20 12:00:53 GMT 55.222778 -4.403660 6,975 235 228 0
2019-10-20 12:00:47 GMT 55.224472 -4.399459 6,975 235 228 0
2019-10-20 12:00:44 GMT 55.226967 -4.393283 6,975 235 228 0
2019-10-20 12:00:40 GMT 55.229050 -4.388149 6,975 235 228 0
2019-10-20 12:00:37 GMT 55.230598 -4.384377 6,975 235 228 64
2019-10-20 12:00:32 GMT 55.234138 -4.375555 6,950 236 227 128
2019-10-20 12:00:27 GMT 55.236740 -4.369004 6,950 236 226 64
2019-10-20 12:00:24 GMT 55.240376 -4.359991 6,950 236 227 192
2019-10-20 12:00:16 GMT 55.243195 -4.352848 6,925 236 229 128
2019-10-20 12:00:13 GMT 55.245850 -4.346224 6,925 235 229 0
2019-10-20 12:00:06 GMT 55.249374 -4.337338 6,925 235 229 -64
2019-10-20 12:00:01 GMT 55.252762 -4.328936 6,925 235 229 64
2019-10-20 11:59:56 GMT 55.255550 -4.322038 6,925 235 229 0
2019-10-20 11:59:53 GMT 55.257786 -4.316628 6,925 235 229 64
2019-10-20 11:59:46 GMT 55.261696 -4.307057 6,925 235 229 0
2019-10-20 11:59:40 GMT 55.265488 -4.297916 6,925 235 229 64
2019-10-20 11:59:35 GMT 55.269012 -4.289434 6,900 234 231 64
2019-10-20 11:59:32 GMT 55.270706 -4.285395 6,900 234 231 128
2019-10-20 11:59:26 GMT 55.274452 -4.276428 6,875 234 231 64
2019-10-20 11:59:19 GMT 55.278454 -4.266690 6,875 234 231 0
2019-10-20 11:59:15 GMT 55.280869 -4.260918 6,875 235 230 0
2019-10-20 11:59:10 GMT 55.284740 -4.251543 6,875 235 230 64
2019-10-20 11:59:05 GMT 55.287231 -4.245408 6,875 235 230 0
2019-10-20 11:59:00 GMT 55.290344 -4.237653 6,875 235 229 -192
2019-10-20 11:58:55 GMT 55.293770 -4.229237 6,875 235 229 -128
2019-10-20 11:58:50 GMT 55.296753 -4.221900 6,900 235 229 0
2019-10-20 11:58:45 GMT 55.299866 -4.214307 6,875 235 229 128
2019-10-20 11:58:39 GMT 55.303593 -4.205017 6,875 235 230 0
2019-10-20 11:58:35 GMT 55.306061 -4.199108 6,875 235 231 -128
2019-10-20 11:58:31 GMT 55.308342 -4.193531 6,900 235 230 -128
2019-10-20 11:58:28 GMT 55.309971 -4.189536 6,900 235 230 -128
2019-10-20 11:58:24 GMT 55.312439 -4.183461 6,900 235 230 64
2019-10-20 11:58:19 GMT 55.316162 -4.174139 6,900 235 231 0
2019-10-20 11:58:14 GMT 55.318584 -4.168063 6,900 235 230 -128
2019-10-20 11:58:08 GMT 55.322662 -4.157921 6,900 235 230 -64
2019-10-20 11:58:04 GMT 55.324680 -4.153082 6,925 235 229 -64
2019-10-20 11:58:01 GMT 55.327240 -4.146773 6,925 235 228 0
2019-10-20 11:57:57 GMT 55.328964 -4.142595 6,925 234 228 0
2019-10-20 11:57:54 GMT 55.331245 -4.137185 6,925 234 228 0
2019-10-20 11:57:50 GMT 55.335297 -4.127467 6,925 234 226 -128
2019-10-20 11:57:44 GMT 55.337265 -4.122620 6,925 235 225 -128
2019-10-20 11:57:40 GMT 55.341660 -4.111876 6,950 235 225 -128
2019-10-20 11:57:34 GMT 55.343487 -4.107305 6,950 235 225 -128
2019-10-20 11:57:30 GMT 55.347473 -4.097416 6,950 235 225 0
2019-10-20 11:57:24 GMT 55.349579 -4.092165 6,950 235 226 0
2019-10-20 11:57:19 GMT 55.354340 -4.080290 6,950 235 227 192
2019-10-20 11:57:13 GMT 55.355732 -4.076760 6,925 235 228 192
2019-10-20 11:57:07 GMT 55.360016 -4.066190 6,900 235 228 128
2019-10-20 11:57:03 GMT 55.361923 -4.061529 6,900 235 228 64
2019-10-20 11:56:58 GMT 55.365143 -4.053551 6,900 235 228 0
2019-10-20 11:56:55 GMT 55.367138 -4.048628 6,900 235 228 0
2019-10-20 11:56:45 GMT 55.373383 -4.033356 6,900 235 228 -128
2019-10-20 11:56:35 GMT 55.381073 -4.014453 6,950 235 229 -128
2019-10-20 11:56:26 GMT 55.385105 -4.004600 6,950 235 227 -64
2019-10-20 11:56:22 GMT 55.387527 -3.998691 6,950 235 227 0
2019-10-20 11:56:18 GMT 55.390133 -3.992282 6,950 235 227 0
2019-10-20 11:56:15 GMT 55.391739 -3.988360 6,950 235 227 0
2019-10-20 11:56:12 GMT 55.393707 -3.983594 6,950 235 227 -64
2019-10-20 11:56:07 GMT 55.396408 -3.976970 6,950 235 226 -128
2019-10-20 11:56:04 GMT 55.398605 -3.971558 6,975 235 226 -128
2019-10-20 11:56:01 GMT 55.399815 -3.968645 6,975 235 226 -64
2019-10-20 11:55:56 GMT 55.403503 -3.959602 6,975 235 226 0
2019-10-20 11:55:53 GMT 55.404751 -3.956576 6,975 235 228 0
2019-10-20 11:55:50 GMT 55.406612 -3.951915 6,975 235 226 64
2019-10-20 11:55:46 GMT 55.409683 -3.944334 6,950 235 227 64
2019-10-20 11:55:43 GMT 55.410988 -3.941179 6,950 235 227 64
2019-10-20 11:55:40 GMT 55.412888 -3.936498 6,950 235 227 64
2019-10-20 11:55:35 GMT 55.416576 -3.927363 6,950 235 228 64
2019-10-20 11:55:31 GMT 55.421906 -3.914203 6,925 235 228 0
2019-10-20 11:55:25 GMT 55.421906 -3.914203 6,925 235 228 0
2019-10-20 11:55:21 GMT 55.424767 -3.907304 6,925 235 228 0
2019-10-20 11:55:15 GMT 55.428360 -3.898369 6,950 235 228 -64
2019-10-20 11:55:12 GMT 55.430145 -3.894088 6,950 235 228 -64
2019-10-20 11:55:02 GMT 55.436417 -3.878578 6,950 235 227 0
2019-10-20 11:54:54 GMT 55.441177 -3.866945 6,950 235 228 0
2019-10-20 11:54:51 GMT 55.443111 -3.862277 6,950 235 228 0
2019-10-20 11:54:42 GMT 55.448418 -3.849249 6,950 235 228 0
2019-10-20 11:54:33 GMT 55.454910 -3.833230 6,950 235 228 -64
2019-10-20 11:54:29 GMT 55.456787 -3.828652 6,950 235 227 -64
2019-10-20 11:54:24 GMT 55.459854 -3.821161 6,950 235 228 0
2019-10-20 11:54:20 GMT 55.462521 -3.814573 6,950 235 228 128
2019-10-20 11:54:13 GMT 55.466309 -3.805265 6,925 235 230 192
2019-10-20 11:54:09 GMT 55.468716 -3.799381 6,925 235 230 128
2019-10-20 11:54:03 GMT 55.472580 -3.789950 6,925 235 230 -64
2019-10-20 11:53:59 GMT 55.475277 -3.783331 6,925 235 230 -64
2019-10-20 11:53:53 GMT 55.478909 -3.774405 6,925 235 230 -64
2019-10-20 11:53:49 GMT 55.481461 -3.768061 6,925 235 230 -64
2019-10-20 11:53:43 GMT 55.485474 -3.758183 6,925 235 230 0
2019-10-20 11:53:39 GMT 55.487686 -3.752747 6,925 235 230 0
2019-10-20 11:53:35 GMT 55.490219 -3.746595 6,925 235 230 0
2019-10-20 11:53:32 GMT 55.491852 -3.742561 6,925 235 231 64
2019-10-20 11:53:29 GMT 55.494003 -3.737266 6,925 235 231 64
2019-10-20 11:53:25 GMT 55.496384 -3.731523 6,925 235 230 0
2019-10-20 11:53:21 GMT 55.498322 -3.726683 6,925 235 230 -64
2019-10-20 11:53:18 GMT 55.500732 -3.720870 6,925 235 230 -64
2019-10-20 11:53:12 GMT 55.504532 -3.711548 6,950 235 230 -64
2019-10-20 11:53:07 GMT 55.507050 -3.705306 6,950 235 228 -64
2019-10-20 11:53:04 GMT 55.509632 -3.698874 6,950 235 228 0
2019-10-20 11:53:01 GMT 55.511124 -3.695269 6,950 235 228 0
2019-10-20 11:52:57 GMT 55.513496 -3.689346 6,950 235 228 64
2019-10-20 11:52:53 GMT 55.518402 -3.677257 6,925 235 229 64
2019-10-20 11:52:49 GMT 55.518402 -3.677257 6,925 235 229 64
2019-10-20 11:52:46 GMT 55.520340 -3.672523 6,925 235 229 64
2019-10-20 11:52:42 GMT 55.524811 -3.661537 6,925 235 229 64
2019-10-20 11:52:39 GMT 55.524811 -3.661537 6,925 235 230 64
2019-10-20 11:52:36 GMT 55.526505 -3.657449 6,900 235 230 64
2019-10-20 11:52:28 GMT 55.531933 -3.644199 6,900 235 231 64
2019-10-20 11:52:25 GMT 55.533188 -3.641052 6,900 235 230 64
2019-10-20 11:52:22 GMT 55.535934 -3.634311 6,900 235 232 64
2019-10-20 11:52:18 GMT 55.537537 -3.630232 6,900 235 232 64
2019-10-20 11:52:14 GMT 55.539780 -3.624739 6,900 235 232 64
2019-10-20 11:52:11 GMT 55.542221 -3.618793 6,900 235 232 64
2019-10-20 11:52:07 GMT 55.545319 -3.611173 6,875 235 232 0
2019-10-20 11:52:00 GMT 55.548752 -3.602600 6,900 235 232 -128
2019-10-20 11:51:57 GMT 55.550995 -3.597107 6,900 235 232 -128
2019-10-20 11:51:54 GMT 55.552780 -3.592696 6,900 235 232 -128
2019-10-20 11:51:50 GMT 55.555534 -3.585920 6,925 235 232 -64
2019-10-20 11:51:47 GMT 55.557209 -3.581800 6,925 235 231 0
2019-10-20 11:51:43 GMT 55.559166 -3.576994 6,925 235 232 -64
2019-10-20 11:51:39 GMT 55.562191 -3.569613 6,925 235 232 -64
2019-10-20 11:51:36 GMT 55.563904 -3.565313 6,925 234 231 0
2019-10-20 11:51:30 GMT 55.568104 -3.555193 6,925 234 231 64
2019-10-20 11:51:26 GMT 55.570496 -3.549500 6,925 234 231 64
2019-10-20 11:51:22 GMT 55.572327 -3.545005 6,900 234 233 128
2019-10-20 11:51:18 GMT 55.574947 -3.538799 6,900 234 233 128
2019-10-20 11:51:15 GMT 55.577271 -3.533270 6,900 234 234 128
2019-10-20 11:51:09 GMT 55.580978 -3.524447 6,900 234 235 -64
2019-10-20 11:51:05 GMT 55.583633 -3.518122 6,900 234 235 -64
2019-10-20 11:50:59 GMT 55.587749 -3.508329 6,900 234 235 -128
2019-10-20 11:50:55 GMT 55.590729 -3.501226 6,900 234 234 0
2019-10-20 11:50:48 GMT 55.594849 -3.491488 6,900 234 234 0
2019-10-20 11:50:44 GMT 55.597321 -3.485662 6,900 234 234 0
2019-10-20 11:50:40 GMT 55.601063 -3.476744 6,925 234 234 -64
2019-10-20 11:50:37 GMT 55.601433 -3.475885 6,925 234 234 -64
2019-10-20 11:50:34 GMT 55.603947 -3.469963 6,925 234 233 0
2019-10-20 11:50:29 GMT 55.607300 -3.461895 6,900 234 233 64
2019-10-20 11:50:26 GMT 55.609222 -3.457364 6,900 234 232 64
2019-10-20 11:50:23 GMT 55.610886 -3.453398 6,900 234 233 64
2019-10-20 11:50:20 GMT 55.612793 -3.448875 6,900 234 232 0
2019-10-20 11:50:16 GMT 55.615356 -3.442716 6,900 234 232 64
2019-10-20 11:50:13 GMT 55.617325 -3.438055 6,900 234 233 -64
2019-10-20 11:50:09 GMT 55.620193 -3.431253 6,900 234 232 0
2019-10-20 11:50:06 GMT 55.621857 -3.427318 6,900 234 232 0
2019-10-20 11:50:03 GMT 55.624420 -3.421242 6,900 234 233 64
2019-10-20 11:49:58 GMT 55.628899 -3.410654 6,900 234 233 64
2019-10-20 11:49:55 GMT 55.628899 -3.410654 6,900 233 234 0
2019-10-20 11:49:52 GMT 55.630760 -3.406277 6,900 233 234 0
2019-10-20 11:49:48 GMT 55.633694 -3.399410 6,900 233 234 0
2019-10-20 11:49:45 GMT 55.635315 -3.395608 6,900 233 234 0
2019-10-20 11:49:42 GMT 55.637375 -3.390741 6,900 233 234 -128
2019-10-20 11:49:39 GMT 55.639374 -3.386021 6,900 234 233 -128
2019-10-20 11:49:35 GMT 55.641888 -3.380184 6,925 234 232 -192
2019-10-20 11:49:32 GMT 55.644104 -3.374883 6,925 234 232 -192
2019-10-20 11:49:27 GMT 55.647354 -3.367310 6,950 234 230 -64
2019-10-20 11:49:24 GMT 55.648872 -3.363705 6,950 234 231 64
2019-10-20 11:49:21 GMT 55.650879 -3.358820 6,950 234 231 64
2019-10-20 11:49:17 GMT 55.653435 -3.352804 6,950 234 230 0
2019-10-20 11:49:14 GMT 55.655319 -3.348167 6,950 234 230 64
2019-10-20 11:49:11 GMT 55.657379 -3.343339 6,950 234 229 64
2019-10-20 11:49:06 GMT 55.660217 -3.336431 6,925 234 229 64
2019-10-20 11:49:03 GMT 55.662277 -3.331518 6,925 235 228 64
2019-10-20 11:49:00 GMT 55.664062 -3.327110 6,925 235 228 128
2019-10-20 11:48:56 GMT 55.666626 -3.320784 6,900 235 228 192
2019-10-20 11:48:53 GMT 55.668282 -3.316669 6,900 236 229 128
2019-10-20 11:48:50 GMT 55.670471 -3.311005 6,900 237 228 64
2019-10-20 11:48:46 GMT 55.672707 -3.304911 6,900 241 228 64
2019-10-20 11:48:41 GMT 55.676617 -3.292122 6,875 245 227 64
2019-10-20 11:48:37 GMT 55.676617 -3.292122 6,875 247 227 0
2019-10-20 11:48:34 GMT 55.677921 -3.286715 6,875 248 227 0
2019-10-20 11:48:31 GMT 55.680107 -3.276501 6,900 252 226 -128
2019-10-20 11:48:25 GMT 55.681271 -3.269978 6,900 254 225 0
2019-10-20 11:48:22 GMT 55.682190 -3.264854 6,900 254 225 64
2019-10-20 11:48:19 GMT 55.683414 -3.257790 6,900 253 226 64
2019-10-20 11:48:16 GMT 55.684063 -3.254013 6,875 253 226 64
2019-10-20 11:48:13 GMT 55.685043 -3.248434 6,875 253 226 64
2019-10-20 11:48:10 GMT 55.685669 -3.244795 6,875 253 227 0
2019-10-20 11:48:05 GMT 55.688828 -3.226735 6,900 253 227 -64
2019-10-20 11:48:01 GMT 55.688828 -3.226735 6,900 253 227 -64
2019-10-20 11:47:57 GMT 55.690117 -3.219595 6,900 253 227 -128
2019-10-20 11:47:53 GMT 55.691139 -3.213758 6,900 253 227 -192
2019-10-20 11:47:50 GMT 55.692120 -3.208437 6,925 253 227 -64
2019-10-20 11:47:47 GMT 55.694183 -3.196439 6,925 253 228 0
2019-10-20 11:47:44 GMT 55.694183 -3.196439 6,925 253 228 0
2019-10-20 11:47:40 GMT 55.695286 -3.190241 6,925 254 227 0
2019-10-20 11:47:37 GMT 55.696167 -3.184834 6,925 255 228 -64
2019-10-20 11:47:33 GMT 55.697193 -3.177881 6,925 257 227 -128
2019-10-20 11:47:30 GMT 55.697845 -3.172646 6,925 261 225 -128
2019-10-20 11:47:27 GMT 55.698635 -3.164577 6,925 264 224 -64
2019-10-20 11:47:23 GMT 55.698944 -3.159818 6,950 266 223 -64
2019-10-20 11:47:20 GMT 55.699196 -3.153934 6,950 268 223 -64
2019-10-20 11:47:15 GMT 55.699265 -3.145336 6,950 273 222 -128
2019-10-20 11:47:12 GMT 55.699219 -3.140176 6,950 274 221 -64
2019-10-20 11:47:09 GMT 55.699009 -3.135138 6,950 276 221 0
2019-10-20 11:47:06 GMT 55.698635 -3.128529 6,950 280 220 192
2019-10-20 11:47:03 GMT 55.698120 -3.123113 6,950 281 221 192
2019-10-20 11:47:00 GMT 55.697479 -3.117371 6,925 284 220 256
2019-10-20 11:46:56 GMT 55.696518 -3.110213 6,900 288 220 256
2019-10-20 11:46:53 GMT 55.695702 -3.105354 6,900 289 220 192
2019-10-20 11:46:49 GMT 55.694595 -3.099892 6,900 292 219 0
2019-10-20 11:46:45 GMT 55.691757 -3.088074 6,900 297 218 -64
2019-10-20 11:46:42 GMT 55.691757 -3.088074 6,900 299 217 -64
2019-10-20 11:46:39 GMT 55.690109 -3.082414 6,925 300 217 -64
2019-10-20 11:46:35 GMT 55.688278 -3.076754 6,925 304 216 64
2019-10-20 11:46:32 GMT 55.686630 -3.072260 6,900 306 215 64
2019-10-20 11:46:29 GMT 55.684715 -3.067589 6,900 308 214 64
2019-10-20 11:46:25 GMT 55.682144 -3.061773 6,900 311 213 0
2019-10-20 11:46:22 GMT 55.680527 -3.058405 6,900 313 213 0
2019-10-20 11:46:19 GMT 55.678387 -3.054371 6,900 316 211 -64
2019-10-20 11:46:14 GMT 55.675079 -3.048878 6,900 321 208 -64
2019-10-20 11:46:11 GMT 55.672943 -3.045710 6,900 321 208 -64
2019-10-20 11:46:07 GMT 55.669785 -3.041465 6,925 326 207 0
2019-10-20 11:46:04 GMT 55.667450 -3.038718 6,900 328 206 64
2019-10-20 11:46:01 GMT 55.664234 -3.035145 6,900 331 205 192
2019-10-20 11:45:58 GMT 55.662556 -3.033428 6,900 332 206 192
2019-10-20 11:45:55 GMT 55.659576 -3.030562 6,875 333 206 64
2019-10-20 11:45:52 GMT 55.657379 -3.028481 6,875 333 206 -128
2019-10-20 11:45:48 GMT 55.654175 -3.025568 6,900 333 205 -128
2019-10-20 11:45:43 GMT 55.647472 -3.019524 6,900 333 205 64
2019-10-20 11:45:40 GMT 55.644962 -3.017206 6,900 333 205 64
2019-10-20 11:45:33 GMT 55.641449 -3.013999 6,900 333 204 0
2019-10-20 11:45:30 GMT 55.638702 -3.011586 6,900 333 204 -64
2019-10-20 11:45:27 GMT 55.636505 -3.009505 6,900 333 203 -64
2019-10-20 11:45:21 GMT 55.631458 -3.004761 6,900 332 202 0
2019-10-20 11:45:17 GMT 55.627968 -3.001413 6,900 332 201 256
2019-10-20 11:45:13 GMT 55.624557 -2.998102 6,875 332 201 384
2019-10-20 11:45:10 GMT 55.621902 -2.995522 6,850 332 201 384
2019-10-20 11:45:07 GMT 55.620102 -2.993860 6,850 332 201 256
2019-10-20 11:45:01 GMT 55.612701 -2.986650 6,825 332 199 0
2019-10-20 11:44:58 GMT 55.612701 -2.986650 6,825 332 199 0
2019-10-20 11:44:51 GMT 55.606796 -2.981040 6,825 332 198 0
2019-10-20 11:44:47 GMT 55.603638 -2.977961 6,850 333 198 0
2019-10-20 11:44:40 GMT 55.595383 -2.970343 6,850 333 198 64
2019-10-20 11:44:37 GMT 55.595383 -2.970343 6,825 333 198 64
2019-10-20 11:44:31 GMT 55.590317 -2.965643 6,825 333 199 64
2019-10-20 11:44:28 GMT 55.588402 -2.963820 6,825 333 200 64
2019-10-20 11:44:25 GMT 55.586288 -2.961897 6,825 333 200 64
2019-10-20 11:44:22 GMT 55.581390 -2.957486 6,825 334 200 -64
2019-10-20 11:44:16 GMT 55.578094 -2.954573 6,825 334 200 -192
2019-10-20 11:44:10 GMT 55.573608 -2.950661 6,850 334 199 -256
2019-10-20 11:44:06 GMT 55.570011 -2.947426 6,850 334 198 -128
2019-10-20 11:44:00 GMT 55.564518 -2.942533 6,875 334 198 64
2019-10-20 11:43:56 GMT 55.561569 -2.939842 6,850 334 198 320
2019-10-20 11:43:50 GMT 55.556885 -2.935581 6,825 333 199 320
2019-10-20 11:43:47 GMT 55.554508 -2.933435 6,800 333 199 256
2019-10-20 11:43:44 GMT 55.552460 -2.931602 6,800 333 199 256
2019-10-20 11:43:39 GMT 55.547947 -2.927427 6,775 333 199 192
2019-10-20 11:43:35 GMT 55.544827 -2.924509 6,775 332 199 0
2019-10-20 11:43:29 GMT 55.539799 -2.919788 6,775 333 199 0
2019-10-20 11:43:25 GMT 55.536915 -2.917128 6,775 333 199 128
2019-10-20 11:43:18 GMT 55.531311 -2.911960 6,750 333 201 128
2019-10-20 11:43:15 GMT 55.528427 -2.909213 6,750 333 201 64
2019-10-20 11:43:08 GMT 55.521832 -2.903137 6,750 333 202 0
2019-10-20 11:43:04 GMT 55.519226 -2.900724 6,750 333 202 -128
2019-10-20 11:42:59 GMT 55.515381 -2.897061 6,775 333 202 -128
2019-10-20 11:42:55 GMT 55.511776 -2.893782 6,850 333 202 -64
2019-10-20 11:42:47 GMT 55.505257 -2.887688 6,775 333 203 -64
2019-10-20 11:42:44 GMT 55.503296 -2.885825 6,775 333 203 128
2019-10-20 11:42:38 GMT 55.497063 -2.880049 6,750 332 204 128
2019-10-20 11:42:34 GMT 55.494873 -2.878002 6,750 332 204 128
2019-10-20 11:42:27 GMT 55.488785 -2.872259 6,750 333 202 -192
2019-10-20 11:42:24 GMT 55.486172 -2.869921 6,775 333 201 -256
2019-10-20 11:42:19 GMT 55.481518 -2.865629 6,775 333 203 -64
2019-10-20 11:42:16 GMT 55.478943 -2.863270 6,775 333 202 -192
2019-10-20 11:42:13 GMT 55.477654 -2.862110 6,800 333 202 -320
2019-10-20 11:42:09 GMT 55.472763 -2.857647 6,850 333 199 -320
2019-10-20 11:42:06 GMT 55.471527 -2.856529 6,850 333 199 64
2019-10-20 11:42:03 GMT 55.468761 -2.854128 6,850 333 199 128
2019-10-20 11:41:56 GMT 55.460724 -2.846791 6,825 333 199 192
2019-10-20 11:41:53 GMT 55.460724 -2.846791 6,825 333 199 192
2019-10-20 11:41:46 GMT 55.455029 -2.841597 6,775 333 199 384
2019-10-20 11:41:42 GMT 55.452049 -2.838850 6,750 333 200 384
2019-10-20 11:41:36 GMT 55.446648 -2.833872 6,725 333 200 192
2019-10-20 11:41:32 GMT 55.443832 -2.831227 6,725 333 199 64
2019-10-20 11:41:27 GMT 55.439392 -2.827122 6,725 332 199 64
2019-10-20 11:41:22 GMT 55.435707 -2.823653 6,700 332 198 0
2019-10-20 11:41:18 GMT 55.431793 -2.820013 6,700 332 196 64
2019-10-20 11:41:14 GMT 55.428772 -2.817105 6,700 332 197 0
2019-10-20 11:41:11 GMT 55.426895 -2.815247 6,700 332 196 0
2019-10-20 11:41:07 GMT 55.423046 -2.811584 6,700 332 195 0
2019-10-20 11:41:04 GMT 55.420578 -2.809171 6,700 332 193 0
2019-10-20 11:41:01 GMT 55.419022 -2.807653 6,700 332 193 0
2019-10-20 11:40:57 GMT 55.414490 -2.803372 6,725 332 191 -64
2019-10-20 11:40:54 GMT 55.410805 -2.799849 6,725 333 187 -192
2019-10-20 11:40:51 GMT 55.410805 -2.799849 6,725 333 187 -192
2019-10-20 11:40:48 GMT 55.407730 -2.797019 6,750 332 179 0
2019-10-20 11:40:43 GMT 55.404831 -2.794405 6,725 333 179 0
2019-10-20 11:40:40 GMT 55.402954 -2.792628 6,725 333 178 0
2019-10-20 11:40:37 GMT 55.400070 -2.789881 6,750 332 179 -192
2019-10-20 11:40:30 GMT 55.395630 -2.785680 6,750 332 179 -128
2019-10-20 11:40:27 GMT 55.393021 -2.783120 6,750 332 179 -64
2019-10-20 11:40:22 GMT 55.389404 -2.779703 6,750 332 179 0
2019-10-20 11:40:17 GMT 55.385616 -2.776045 6,750 332 179 64
2019-10-20 11:40:12 GMT 55.382080 -2.772755 6,750 332 180 0
2019-10-20 11:40:09 GMT 55.380157 -2.770978 6,750 332 180 64
2019-10-20 11:40:06 GMT 55.378189 -2.769120 6,750 333 181 0
2019-10-20 11:40:02 GMT 55.374893 -2.766050 6,750 333 181 -64
2019-10-20 11:39:59 GMT 55.372910 -2.764227 6,750 333 181 -64
2019-10-20 11:39:56 GMT 55.370861 -2.762312 6,750 333 181 -64
2019-10-20 11:39:52 GMT 55.367088 -2.758817 6,750 333 181 128
2019-10-20 11:39:48 GMT 55.364731 -2.756599 6,750 333 182 128
2019-10-20 11:39:44 GMT 55.361618 -2.753691 6,750 332 182 -64
2019-10-20 11:39:41 GMT 55.359455 -2.751659 6,750 332 182 -64
2019-10-20 11:39:35 GMT 55.354473 -2.746998 6,775 333 183 -128
2019-10-20 11:39:30 GMT 55.351215 -2.744002 6,775 333 185 -128
2019-10-20 11:39:27 GMT 55.347401 -2.740506 6,800 333 183 -128
2019-10-20 11:39:21 GMT 55.344269 -2.737615 6,800 332 184 -192
2019-10-20 11:39:18 GMT 55.342117 -2.735596 6,800 333 184 -192
2019-10-20 11:39:13 GMT 55.338593 -2.732364 6,825 333 185 -128
2019-10-20 11:39:10 GMT 55.336506 -2.730435 6,825 333 185 -128
2019-10-20 11:39:05 GMT 55.332687 -2.726940 6,825 333 185 -192
2019-10-20 11:39:01 GMT 55.326141 -2.720974 6,850 333 186 -64
2019-10-20 11:38:57 GMT 55.320629 -2.716037 6,850 334 186 -64
2019-10-20 11:38:50 GMT 55.320629 -2.716037 6,850 334 186 -64
2019-10-20 11:38:46 GMT 55.317352 -2.713219 6,850 334 186 -64
2019-10-20 11:38:39 GMT 55.312546 -2.708938 6,875 334 187 -64
2019-10-20 11:38:35 GMT 55.309597 -2.706465 6,875 335 187 0
2019-10-20 11:38:28 GMT 55.303436 -2.701263 6,850 335 189 128
2019-10-20 11:38:24 GMT 55.300186 -2.698598 6,850 335 191 128
2019-10-20 11:38:19 GMT 55.296616 -2.695689 6,825 336 191 64
2019-10-20 11:38:16 GMT 55.293911 -2.693481 6,825 336 191 0
2019-10-20 11:38:10 GMT 55.288929 -2.689403 6,875 336 191 -256
2019-10-20 11:38:05 GMT 55.285172 -2.686400 6,850 336 191 -256
2019-10-20 11:37:59 GMT 55.280228 -2.682441 6,900 335 193 -192
2019-10-20 11:37:55 GMT 55.276932 -2.679695 6,900 335 193 -64
2019-10-20 11:37:49 GMT 55.268738 -2.672586 6,900 325 195 192
2019-10-20 11:37:44 GMT 55.268738 -2.672586 6,900 332 194 0
2019-10-20 11:37:39 GMT 55.263699 -2.667597 6,900 325 195 192
2019-10-20 11:37:34 GMT 55.261002 -2.664588 6,900 325 195 192
2019-10-20 11:37:28 GMT 55.256424 -2.658530 6,875 320 195 192
2019-10-20 11:37:24 GMT 55.253586 -2.654087 6,850 317 195 256
2019-10-20 11:37:18 GMT 55.249825 -2.647372 6,825 311 195 256
2019-10-20 11:37:13 GMT 55.247265 -2.642045 6,800 306 197 384
2019-10-20 11:37:08 GMT 55.244240 -2.634139 6,775 300 199 256
2019-10-20 11:37:03 GMT 55.242279 -2.627671 6,750 295 199 128
2019-10-20 11:36:57 GMT 55.240189 -2.618824 6,700 253 208 192
2019-10-20 11:36:53 GMT 55.239166 -2.612484 6,725 284 202 128
2019-10-20 11:36:47 GMT 55.238068 -2.602306 6,700 277 204 192
2019-10-20 11:36:43 GMT 55.237766 -2.595603 6,700 272 205 128
2019-10-20 11:36:36 GMT 55.237976 -2.585180 6,700 263 206 64
2019-10-20 11:36:32 GMT 55.238514 -2.578874 6,700 257 207 128
2019-10-20 11:36:27 GMT 55.240143 -2.568221 6,675 251 209 192
2019-10-20 11:36:22 GMT 55.241547 -2.561915 6,650 245 209 128
2019-10-20 11:36:16 GMT 55.244202 -2.552948 6,650 238 211 192
2019-10-20 11:36:12 GMT 55.246426 -2.546997 6,625 234 211 192
2019-10-20 11:36:05 GMT 55.250473 -2.538407 6,600 226 213 320
2019-10-20 11:36:01 GMT 55.253220 -2.533641 6,575 221 214 192
2019-10-20 11:35:56 GMT 55.258018 -2.527105 6,575 213 214 192
2019-10-20 11:35:50 GMT 55.262146 -2.522816 6,550 207 214 192
2019-10-20 11:35:45 GMT 55.267048 -2.518782 6,525 201 215 192
2019-10-20 11:35:41 GMT 55.270912 -2.516285 6,525 196 216 192
2019-10-20 11:35:35 GMT 55.276749 -2.513769 6,500 190 216 64
2019-10-20 11:35:30 GMT 55.281143 -2.512638 6,500 184 216 64
2019-10-20 11:35:24 GMT 55.287003 -2.512315 6,500 178 216 0
2019-10-20 11:35:20 GMT 55.291718 -2.512557 6,500 178 216 0
2019-10-20 11:35:15 GMT 55.297531 -2.512961 6,500 177 216 128
2019-10-20 11:35:09 GMT 55.302055 -2.513206 6,475 177 217 256
2019-10-20 11:35:03 GMT 55.308201 -2.513622 6,425 177 218 512
2019-10-20 11:34:59 GMT 55.312729 -2.514011 6,400 177 220 192
2019-10-20 11:34:53 GMT 55.318722 -2.514371 6,400 177 221 192
2019-10-20 11:34:49 GMT 55.322449 -2.514621 6,375 178 222 192
2019-10-20 11:34:43 GMT 55.329056 -2.514870 6,350 178 222 64
2019-10-20 11:34:39 GMT 55.333061 -2.515037 6,350 178 222 -128
2019-10-20 11:34:33 GMT 55.339371 -2.515223 6,375 179 221 -320
2019-10-20 11:34:29 GMT 55.343628 -2.515304 6,400 179 220 -256
2019-10-20 11:34:23 GMT 55.350174 -2.515384 6,425 179 220 -128
2019-10-20 11:34:18 GMT 55.353928 -2.515546 6,425 178 221 -64
2019-10-20 11:34:12 GMT 55.360886 -2.515708 6,425 179 221 -64
2019-10-20 11:34:08 GMT 55.364319 -2.515788 6,450 179 221 -64
2019-10-20 11:34:03 GMT 55.369858 -2.515788 6,450 180 221 0
2019-10-20 11:34:00 GMT 55.372353 -2.515786 6,450 180 221 0
2019-10-20 11:33:57 GMT 55.375397 -2.515788 6,450 180 221 0
2019-10-20 11:33:51 GMT 55.382355 -2.515788 6,450 179 220 -128
2019-10-20 11:33:47 GMT 55.385651 -2.515869 6,475 178 220 -192
2019-10-20 11:33:43 GMT 55.389809 -2.516036 6,475 178 219 -192
2019-10-20 11:33:40 GMT 55.393066 -2.516111 6,500 178 219 -192
2019-10-20 11:33:37 GMT 55.396420 -2.516202 6,500 179 219 -192
2019-10-20 11:33:30 GMT 55.402725 -2.516354 6,525 179 218 -320
2019-10-20 11:33:27 GMT 55.406288 -2.516452 6,550 179 218 -256
2019-10-20 11:33:21 GMT 55.412479 -2.516618 6,575 178 217 0
2019-10-20 11:33:17 GMT 55.416389 -2.516701 6,550 179 217 0
2019-10-20 11:33:11 GMT 55.423096 -2.516839 6,575 179 217 -128
2019-10-20 11:33:06 GMT 55.426723 -2.516951 6,575 179 217 -128
2019-10-20 11:33:03 GMT 55.431007 -2.517034 6,575 178 217 64
2019-10-20 11:32:59 GMT 55.434311 -2.517162 6,575 178 217 64
2019-10-20 11:32:56 GMT 55.437386 -2.517284 6,575 178 218 0
2019-10-20 11:32:50 GMT 55.443604 -2.517566 6,575 178 217 -192
2019-10-20 11:32:45 GMT 55.448322 -2.517843 6,600 178 217 -128
2019-10-20 11:32:42 GMT 55.451752 -2.518033 6,600 178 217 192
2019-10-20 11:32:39 GMT 55.454330 -2.518187 6,575 178 218 320
2019-10-20 11:32:36 GMT 55.457775 -2.518358 6,550 178 219 256
2019-10-20 11:32:33 GMT 55.460312 -2.518449 6,550 178 220 256
2019-10-20 11:32:29 GMT 55.464291 -2.518702 6,525 178 220 192
2019-10-20 11:32:25 GMT 55.468342 -2.518959 6,525 178 221 128
2019-10-20 11:32:22 GMT 55.472305 -2.519115 6,525 178 221 -64
2019-10-20 11:32:18 GMT 55.475372 -2.519302 6,525 178 221 -256
2019-10-20 11:32:15 GMT 55.478817 -2.519474 6,550 178 220 -320
2019-10-20 11:32:11 GMT 55.485718 -2.519864 6,575 177 219 -64
2019-10-20 11:32:08 GMT 55.485718 -2.519864 6,600 177 219 -128
2019-10-20 11:32:05 GMT 55.489010 -2.520075 6,600 177 219 -64
2019-10-20 11:31:58 GMT 55.496086 -2.520590 6,600 177 219 64
2019-10-20 11:31:55 GMT 55.499344 -2.520847 6,575 177 219 64
2019-10-20 11:31:52 GMT 55.502277 -2.521019 6,575 177 219 -64
2019-10-20 11:31:47 GMT 55.506592 -2.521279 6,600 177 219 -64
2019-10-20 11:31:44 GMT 55.510284 -2.521534 6,600 177 219 -64
2019-10-20 11:31:41 GMT 55.513504 -2.521778 6,600 177 219 0
2019-10-20 11:31:38 GMT 55.517128 -2.522049 6,600 177 219 -128
2019-10-20 11:31:34 GMT 55.520599 -2.522278 6,600 177 219 -128
2019-10-20 11:31:30 GMT 55.525600 -2.522650 6,625 177 218 -128
2019-10-20 11:31:27 GMT 55.527512 -2.522777 6,625 177 218 -128
2019-10-20 11:31:24 GMT 55.530674 -2.522993 6,625 177 218 -128
2019-10-20 11:31:21 GMT 55.533466 -2.523251 6,625 177 218 -192
2019-10-20 11:31:18 GMT 55.536346 -2.523443 6,650 177 218 -192
2019-10-20 11:31:14 GMT 55.544315 -2.523937 6,675 177 217 -128
2019-10-20 11:31:11 GMT 55.544315 -2.523937 6,675 177 217 -128
2019-10-20 11:31:08 GMT 55.546734 -2.524109 6,675 177 218 0
2019-10-20 11:31:05 GMT 55.550491 -2.524359 6,675 178 218 0
2019-10-20 11:31:01 GMT 55.553440 -2.524538 6,675 178 218 64
2019-10-20 11:30:57 GMT 55.557587 -2.524775 6,675 178 219 64
2019-10-20 11:30:54 GMT 55.560974 -2.524941 6,675 178 219 64
2019-10-20 11:30:51 GMT 55.563911 -2.525139 6,675 178 219 0
2019-10-20 11:30:48 GMT 55.566833 -2.525274 6,675 178 220 -64
2019-10-20 11:30:45 GMT 55.572510 -2.525607 6,675 178 220 -64
2019-10-20 11:30:42 GMT 55.572510 -2.525607 6,675 177 219 -64
2019-10-20 11:30:37 GMT 55.577637 -2.525940 6,675 177 219 -64
2019-10-20 11:30:34 GMT 55.580719 -2.526083 6,675 177 219 -64
2019-10-20 11:30:31 GMT 55.584686 -2.526356 6,700 177 219 -64
2019-10-20 11:30:27 GMT 55.588120 -2.526512 6,700 177 219 -64
2019-10-20 11:30:24 GMT 55.591141 -2.526772 6,700 177 218 -64
2019-10-20 11:30:20 GMT 55.595078 -2.526939 6,700 177 218 -64
2019-10-20 11:30:17 GMT 55.598602 -2.527188 6,700 177 219 -64
2019-10-20 11:30:14 GMT 55.601250 -2.527370 6,725 178 219 -128
2019-10-20 11:30:10 GMT 55.605392 -2.527628 6,725 178 219 -128
2019-10-20 11:30:07 GMT 55.607849 -2.527771 6,725 178 219 -128
2019-10-20 11:30:03 GMT 55.612232 -2.527971 6,750 178 219 -64
2019-10-20 11:29:57 GMT 55.618011 -2.528354 6,725 178 219 -64
2019-10-20 11:29:53 GMT 55.622059 -2.528572 6,725 178 219 -64
2019-10-20 11:29:50 GMT 55.624851 -2.528744 6,750 178 218 -128
2019-10-20 11:29:47 GMT 55.628174 -2.528936 6,750 178 218 -256
2019-10-20 11:29:43 GMT 55.632202 -2.529186 6,775 178 218 -256
2019-10-20 11:29:40 GMT 55.636047 -2.529352 6,775 178 218 -128
2019-10-20 11:29:37 GMT 55.638443 -2.529430 6,775 178 218 -64
2019-10-20 11:29:33 GMT 55.642502 -2.529685 6,775 178 218 0
2019-10-20 11:29:29 GMT 55.646683 -2.529945 6,775 177 219 -64
2019-10-20 11:29:26 GMT 55.649323 -2.530101 6,775 177 219 -64
2019-10-20 11:29:22 GMT 55.652969 -2.530289 6,800 177 219 -128
2019-10-20 11:29:19 GMT 55.656693 -2.530601 6,800 177 219 -128
2019-10-20 11:29:16 GMT 55.659073 -2.530684 6,800 177 219 -128
2019-10-20 11:29:13 GMT 55.663162 -2.530975 6,825 177 218 -128
2019-10-20 11:29:08 GMT 55.667259 -2.531233 6,825 177 218 -256
2019-10-20 11:29:05 GMT 55.670609 -2.531433 6,850 177 217 -256
2019-10-20 11:29:02 GMT 55.674088 -2.531683 6,850 178 217 -128
2019-10-20 11:28:58 GMT 55.677219 -2.531834 6,850 178 218 0
2019-10-20 11:28:55 GMT 55.680725 -2.532099 6,850 178 217 64
2019-10-20 11:28:52 GMT 55.683926 -2.532263 6,850 178 217 64
2019-10-20 11:28:48 GMT 55.687790 -2.532434 6,825 178 219 -128
2019-10-20 11:28:45 GMT 55.690750 -2.532682 6,850 178 218 0
2019-10-20 11:28:42 GMT 55.694138 -2.532848 6,825 178 218 0
2019-10-20 11:28:37 GMT 55.698349 -2.533098 6,825 178 218 0
2019-10-20 11:28:31 GMT 55.704346 -2.533431 6,850 177 218 -64
2019-10-20 11:28:28 GMT 55.708557 -2.533680 6,850 178 219 -128
2019-10-20 11:28:24 GMT 55.711205 -2.533894 6,850 177 219 -128
2019-10-20 11:28:21 GMT 55.714836 -2.534065 6,900 178 219 -64
2019-10-20 11:28:17 GMT 55.721512 -2.534429 6,875 178 219 -192
2019-10-20 11:28:14 GMT 55.721512 -2.534429 6,875 178 219 -192
2019-10-20 11:28:10 GMT 55.725632 -2.534679 6,900 178 219 -192
2019-10-20 11:28:07 GMT 55.728989 -2.534838 6,900 178 219 -64
2019-10-20 11:28:04 GMT 55.732315 -2.535095 6,900 178 221 128
2019-10-20 11:28:00 GMT 55.735737 -2.535267 6,900 178 220 -64
2019-10-20 11:27:57 GMT 55.739456 -2.535428 6,900 178 220 64
2019-10-20 11:27:54 GMT 55.742386 -2.535595 6,875 178 221 128
2019-10-20 11:27:51 GMT 55.745590 -2.535761 6,900 178 222 128
2019-10-20 11:27:47 GMT 55.750542 -2.536039 6,875 177 223 128
2019-10-20 11:27:43 GMT 55.753475 -2.536211 6,875 177 220 -192
2019-10-20 11:27:40 GMT 55.756454 -2.536383 6,850 177 224 0
2019-10-20 11:27:36 GMT 55.763901 -2.536843 6,875 177 223 -128
2019-10-20 11:27:33 GMT 55.763901 -2.536843 6,875 177 220 -192
2019-10-20 11:27:30 GMT 55.766739 -2.537093 6,875 177 223 -256
2019-10-20 11:27:27 GMT 55.770584 -2.537342 6,900 177 222 -320
2019-10-20 11:27:23 GMT 55.773926 -2.537592 6,925 177 221 -512
2019-10-20 11:27:19 GMT 55.778000 -2.537925 7,050 178 222 0
2019-10-20 11:27:16 GMT 55.782440 -2.538175 7,000 177 219 -384
2019-10-20 11:27:13 GMT 55.784897 -2.538357 7,000 177 219 -128
2019-10-20 11:27:08 GMT 55.789551 -2.538700 7,000 177 219 0
2019-10-20 11:27:05 GMT 55.792511 -2.538924 7,000 177 220 64
2019-10-20 11:27:02 GMT 55.795277 -2.539129 7,000 177 221 0
2019-10-20 11:26:58 GMT 55.798828 -2.539340 7,000 177 220 -256
2019-10-20 11:26:52 GMT 55.805466 -2.539839 7,025 177 220 -128
2019-10-20 11:26:49 GMT 55.808533 -2.540089 7,025 177 220 0
2019-10-20 11:26:46 GMT 55.812057 -2.540339 7,050 178 222 -128
2019-10-20 11:26:42 GMT 55.815948 -2.540588 7,025 178 221 64
2019-10-20 11:26:38 GMT 55.819931 -2.540755 7,025 178 222 0
2019-10-20 11:26:35 GMT 55.823627 -2.540932 7,050 178 222 -128
2019-10-20 11:26:31 GMT 55.827446 -2.541189 7,075 177 222 -256
2019-10-20 11:26:28 GMT 55.831421 -2.541421 7,075 177 222 -256
2019-10-20 11:26:23 GMT 55.834660 -2.541704 7,100 177 222 0
2019-10-20 11:26:20 GMT 55.839752 -2.542087 7,100 177 223 64
2019-10-20 11:26:13 GMT 55.845226 -2.542477 7,075 177 226 -128
2019-10-20 11:26:08 GMT 55.850418 -2.542919 7,075 177 226 -64
2019-10-20 11:26:03 GMT 55.855865 -2.543335 7,100 177 226 -192
2019-10-20 11:26:00 GMT 55.858448 -2.543592 7,125 177 226 -320
2019-10-20 11:25:57 GMT 55.861523 -2.543850 7,125 177 226 -320
2019-10-20 11:25:53 GMT 55.866348 -2.544167 7,150 177 227 -256
2019-10-20 11:25:50 GMT 55.869247 -2.544451 7,150 177 226 -192
2019-10-20 11:25:47 GMT 55.872459 -2.544622 7,150 177 227 -256
2019-10-20 11:25:44 GMT 55.879761 -2.545166 7,175 177 227 -192
2019-10-20 11:25:40 GMT 55.879761 -2.545166 6,875 177 228 -192
2019-10-20 11:25:36 GMT 55.883698 -2.545499 7,175 177 227 -192
2019-10-20 11:25:33 GMT 55.888008 -2.545824 6,825 177 228 -192
2019-10-20 11:25:30 GMT 55.890472 -2.545998 6,825 177 228 -192
2019-10-20 11:25:27 GMT 55.893860 -2.546248 6,850 177 228 -192
2019-10-20 11:25:24 GMT 55.896576 -2.546511 6,875 177 228 -256
2019-10-20 11:25:20 GMT 55.901321 -2.546914 6,875 177 228 -384
2019-10-20 11:25:17 GMT 55.904343 -2.547080 6,925 178 227 -320
2019-10-20 11:25:10 GMT 55.912354 -2.547580 6,950 177 226 -256
2019-10-20 11:25:07 GMT 55.915146 -2.547746 6,975 178 227 64
2019-10-20 11:25:03 GMT 55.919991 -2.547970 6,950 178 228 192
2019-10-20 11:24:59 GMT 55.923298 -2.548141 6,950 178 229 128
2019-10-20 11:24:55 GMT 55.926682 -2.548329 6,925 178 229 128
2019-10-20 11:24:52 GMT 55.930466 -2.548571 6,925 178 230 -64
2019-10-20 11:24:49 GMT 55.933678 -2.548742 6,950 178 230 -128
2019-10-20 11:24:46 GMT 55.937542 -2.548914 6,950 178 230 -192
2019-10-20 11:24:38 GMT 55.944710 -2.549343 6,975 178 229 -256
2019-10-20 11:24:35 GMT 55.948761 -2.549515 7,000 178 229 -320
2019-10-20 11:24:31 GMT 55.952297 -2.549686 7,025 178 228 -256
2019-10-20 11:24:28 GMT 55.955338 -2.549827 7,025 178 228 -192
2019-10-20 11:24:25 GMT 55.958954 -2.549993 7,050 178 228 -256
2019-10-20 11:24:21 GMT 55.962982 -2.550160 7,075 178 227 -128
2019-10-20 11:24:18 GMT 55.966095 -2.550243 7,075 178 227 -64
2019-10-20 11:24:15 GMT 55.969757 -2.550373 7,075 178 227 -64
2019-10-20 11:24:11 GMT 55.973877 -2.550493 7,075 178 227 0
2019-10-20 11:24:08 GMT 55.976879 -2.550631 7,075 179 228 192
2019-10-20 11:24:05 GMT 55.985210 -2.550802 7,025 179 230 320
2019-10-20 11:24:00 GMT 55.985210 -2.550802 7,025 179 230 320
2019-10-20 11:23:57 GMT 55.991501 -2.550992 7,025 179 232 128
2019-10-20 11:23:51 GMT 55.995712 -2.551075 7,025 179 233 -448
2019-10-20 11:23:47 GMT 55.999641 -2.551146 7,050 179 234 -768
2019-10-20 11:23:43 GMT 56.006207 -2.551231 7,125 179 234 -832
2019-10-20 11:23:40 GMT 56.006207 -2.551231 7,125 179 234 -896
2019-10-20 11:23:37 GMT 56.009949 -2.551242 7,175 179 234 -960
2019-10-20 11:23:34 GMT 56.017517 -2.551403 7,275 179 234 -1024
2019-10-20 11:23:30 GMT 56.017517 -2.551403 7,300 179 234 -1024
2019-10-20 11:23:27 GMT 56.020638 -2.551403 7,350 179 234 -1024
2019-10-20 11:23:24 GMT 56.025055 -2.551491 7,425 179 234 -1024
2019-10-20 11:23:21 GMT 56.027386 -2.551489 7,475 179 234 -1024
2019-10-20 11:23:18 GMT 56.030823 -2.551575 7,525 179 234 -960
2019-10-20 11:23:15 GMT 56.034164 -2.551575 7,575 179 234 -960
2019-10-20 11:23:11 GMT 56.038147 -2.551575 9,000 179 235 -960
2019-10-20 11:23:08 GMT 56.042377 -2.551661 8,100 179 234 -896
2019-10-20 11:23:05 GMT 56.044968 -2.551658 7,700 179 234 -896
2019-10-20 11:23:02 GMT 56.050827 -2.551824 7,775 179 235 -832
2019-10-20 11:22:59 GMT 56.050827 -2.551824 7,800 179 235 -832
2019-10-20 11:22:56 GMT 56.054214 -2.551908 7,825 179 235 -896
2019-10-20 11:22:52 GMT 56.058197 -2.551991 7,875 179 235 -1024
2019-10-20 11:22:47 GMT 56.064442 -2.552176 7,975 179 235 -1024
2019-10-20 11:22:44 GMT 56.067051 -2.552261 8,050 179 235 -1024
2019-10-20 11:22:41 GMT 56.071747 -2.552407 8,050 179 235 -1024
2019-10-20 11:22:38 GMT 56.073521 -2.552433 8,150 179 235 -1024
2019-10-20 11:22:35 GMT 56.077332 -2.552573 8,175 178 235 -1088
2019-10-20 11:22:32 GMT 56.080734 -2.552691 8,250 178 235 -1024
2019-10-20 11:22:28 GMT 56.084972 -2.552862 8,275 178 235 -1024
2019-10-20 11:22:24 GMT 56.089462 -2.553073 8,375 178 235 -960
2019-10-20 11:22:21 GMT 56.092327 -2.553205 8,425 178 236 -896
2019-10-20 11:22:17 GMT 56.096695 -2.553406 8,450 178 236 -896
2019-10-20 11:22:14 GMT 56.100197 -2.553549 8,525 178 237 -832
2019-10-20 11:22:11 GMT 56.103546 -2.553806 8,575 178 237 -832
2019-10-20 11:22:08 GMT 56.107319 -2.553978 8,575 178 237 -768
2019-10-20 11:22:03 GMT 56.111298 -2.554238 8,650 178 237 -960
2019-10-20 11:22:00 GMT 56.116241 -2.554488 8,725 178 237 -1024
2019-10-20 11:21:57 GMT 56.122879 -2.554987 8,825 177 237 -1024
2019-10-20 11:21:53 GMT 56.122879 -2.554987 8,825 177 237 -1024
2019-10-20 11:21:50 GMT 56.125610 -2.555094 8,875 178 237 -1088
2019-10-20 11:21:47 GMT 56.129700 -2.555403 8,925 178 237 -960
2019-10-20 11:21:43 GMT 56.133991 -2.555695 8,975 177 237 -896
2019-10-20 11:21:40 GMT 56.137253 -2.555903 9,050 177 238 -832
2019-10-20 11:21:37 GMT 56.140556 -2.556124 9,075 177 239 -704
2019-10-20 11:21:34 GMT 56.143478 -2.556319 9,150 177 240 -704
2019-10-20 11:21:31 GMT 56.147095 -2.556652 9,150 177 240 -704
2019-10-20 11:21:28 GMT 56.150703 -2.556982 9,175 177 241 -704
2019-10-20 11:21:23 GMT 56.155544 -2.557411 9,250 177 241 -832
2019-10-20 11:21:20 GMT 56.158806 -2.557669 9,300 177 241 -896
2019-10-20 11:21:17 GMT 56.163040 -2.558012 9,350 177 241 -960
2019-10-20 11:21:14 GMT 56.166019 -2.558270 9,400 177 242 -960
2019-10-20 11:21:11 GMT 56.170074 -2.558649 9,450 177 242 -896
2019-10-20 11:21:07 GMT 56.174561 -2.559065 9,500 176 243 -832
2019-10-20 11:21:03 GMT 56.177994 -2.559398 9,550 176 243 -704
2019-10-20 11:21:00 GMT 56.181709 -2.559729 9,575 176 244 -640
2019-10-20 11:20:57 GMT 56.185104 -2.560072 9,600 176 246 -576
2019-10-20 11:20:53 GMT 56.189716 -2.560587 9,650 176 247 -768
2019-10-20 11:20:50 GMT 56.193100 -2.560980 9,675 176 247 -896
2019-10-20 11:20:47 GMT 56.196396 -2.561313 9,775 176 247 -1088
2019-10-20 11:20:43 GMT 56.204590 -2.562311 9,850 176 246 -1088
2019-10-20 11:20:37 GMT 56.207870 -2.562733 9,925 176 246 -1088
2019-10-20 11:20:31 GMT 56.214478 -2.563560 10,025 176 246 -1024
2019-10-20 11:20:28 GMT 56.217911 -2.563976 10,075 176 246 -1024
2019-10-20 11:20:25 GMT 56.222488 -2.564559 10,100 176 246 -1024
2019-10-20 11:20:20 GMT 56.226910 -2.565136 10,250 176 246 -1024
2019-10-20 11:20:17 GMT 56.230682 -2.565565 10,625 176 246 -1152
2019-10-20 11:20:12 GMT 56.239975 -2.566723 10,375 175 246 -1088
2019-10-20 11:20:09 GMT 56.239975 -2.566723 10,425 175 246 -1152
2019-10-20 11:20:06 GMT 56.243271 -2.567139 10,625 178 247 -1024
2019-10-20 11:20:02 GMT 56.250465 -2.568398 10,600 175 246 -1088
2019-10-20 11:19:56 GMT 56.253983 -2.568637 10,775 204 253 -64
2019-10-20 11:19:53 GMT 56.257141 -2.568554 10,700 184 247 -960
2019-10-20 11:19:50 GMT 56.261127 -2.568054 10,800 192 248 -832
2019-10-20 11:19:47 GMT 56.264805 -2.566938 10,825 196 249 -768
2019-10-20 11:19:44 GMT 56.268265 -2.565474 10,850 197 249 -704
2019-10-20 11:19:39 GMT 56.273556 -2.562304 10,900 202 251 -128
2019-10-20 11:19:36 GMT 56.277699 -2.559042 10,900 208 255 -192
2019-10-20 11:19:31 GMT 56.284912 -2.551918 10,950 209 257 -960
2019-10-20 11:19:28 GMT 56.288269 -2.548662 10,975 208 257 -960
2019-10-20 11:19:25 GMT 56.288269 -2.548662 11,000 206 257 -896
2019-10-20 11:19:20 GMT 56.292919 -2.544880 11,100 202 257 -896
2019-10-20 11:19:17 GMT 56.296509 -2.542503 11,175 196 256 -896
2019-10-20 11:19:14 GMT 56.300323 -2.540417 11,200 186 258 -640
2019-10-20 11:19:11 GMT 56.303833 -2.538841 11,200 194 257 -896
2019-10-20 11:19:08 GMT 56.307312 -2.537675 11,300 187 257 -640
2019-10-20 11:19:05 GMT 56.310791 -2.536843 11,325 179 260 -384
2019-10-20 11:19:01 GMT 56.319214 -2.536427 11,325 176 260 -320
2019-10-20 11:18:55 GMT 56.322762 -2.536983 11,475 172 261 -448
2019-10-20 11:18:52 GMT 56.325974 -2.537756 11,350 170 261 -640
2019-10-20 11:18:49 GMT 56.330246 -2.539173 11,375 167 262 -768
2019-10-20 11:18:46 GMT 56.338402 -2.543335 11,450 154 257 -1216
2019-10-20 11:18:42 GMT 56.338402 -2.543335 11,500 159 260 -1152
2019-10-20 11:18:38 GMT 56.346409 -2.549515 11,625 153 257 -1216
2019-10-20 11:18:34 GMT 56.346409 -2.549515 11,725 148 255 -1216
2019-10-20 11:18:30 GMT 56.351120 -2.554321 11,750 146 254 -1216
2019-10-20 11:18:27 GMT 56.354599 -2.558649 11,900 140 252 -1216
2019-10-20 11:18:24 GMT 56.356888 -2.561895 11,925 136 250 -1152
2019-10-20 11:18:21 GMT 56.358765 -2.564891 11,900 136 250 -1152
2019-10-20 11:18:18 GMT 56.362701 -2.571883 12,000 131 247 -1152
2019-10-20 11:18:15 GMT 56.364166 -2.574796 12,075 127 246 -1088
2019-10-20 11:18:12 GMT 56.366520 -2.580156 12,100 126 245 -1088
2019-10-20 11:18:07 GMT 56.369408 -2.587538 12,200 121 241 -1088
2019-10-20 11:18:04 GMT 56.371174 -2.592773 12,250 118 240 -1088
2019-10-20 11:18:01 GMT 56.372757 -2.598181 12,325 116 238 -1088
2019-10-20 11:17:58 GMT 56.374107 -2.603416 12,350 112 236 -1088
2019-10-20 11:17:54 GMT 56.375885 -2.611916 12,500 106 234 -768
2019-10-20 11:17:51 GMT 56.376717 -2.616549 12,500 105 233 -640
2019-10-20 11:17:47 GMT 56.377880 -2.624960 12,525 103 233 -512
2019-10-20 11:17:44 GMT 56.378448 -2.629811 12,575 98 232 -384
2019-10-20 11:17:41 GMT 56.378948 -2.635689 12,575 97 232 -384
2019-10-20 11:17:37 GMT 56.379501 -2.644209 12,575 95 232 -320
2019-10-20 11:17:34 GMT 56.379787 -2.655945 12,600 90 233 -64
2019-10-20 11:17:31 GMT 56.379787 -2.655945 12,600 89 233 64
2019-10-20 11:17:28 GMT 56.379501 -2.667181 12,600 85 232 128
2019-10-20 11:17:25 GMT 56.379227 -2.672175 12,600 83 232 128
2019-10-20 11:17:22 GMT 56.379227 -2.672175 12,600 82 232 128
2019-10-20 11:17:18 GMT 56.378586 -2.679998 12,600 77 230 -64
2019-10-20 11:17:15 GMT 56.377880 -2.686586 12,600 77 230 -64
2019-10-20 11:17:12 GMT 56.377167 -2.691401 12,600 75 230 -128
2019-10-20 11:17:08 GMT 56.375923 -2.698174 12,625 66 227 -448
2019-10-20 11:17:05 GMT 56.374374 -2.704634 12,650 61 225 -576
2019-10-20 11:17:02 GMT 56.371826 -2.712593 12,675 55 224 -384
2019-10-20 11:16:56 GMT 56.369476 -2.718450 12,675 50 223 -128
2019-10-20 11:16:53 GMT 56.367870 -2.722034 12,650 49 224 -64
2019-10-20 11:16:49 GMT 56.365494 -2.727023 12,650 49 225 -128
2019-10-20 11:16:46 GMT 56.363354 -2.731476 12,650 48 222 -832
2019-10-20 11:16:43 GMT 56.361073 -2.736197 12,675 48 224 -576
2019-10-20 11:16:40 GMT 56.358398 -2.741755 12,700 48 223 -768
2019-10-20 11:16:37 GMT 56.356930 -2.744694 12,775 48 218 -384
2019-10-20 11:16:34 GMT 56.354187 -2.750327 12,775 48 218 -576
2019-10-20 11:16:30 GMT 56.352554 -2.753706 12,775 48 218 -384
2019-10-20 11:16:27 GMT 56.350067 -2.758734 12,800 48 214 -320
2019-10-20 11:16:23 GMT 56.347157 -2.764778 12,825 48 210 192
2019-10-20 11:16:20 GMT 56.345535 -2.768055 12,825 48 209 512
2019-10-20 11:16:17 GMT 56.343750 -2.771634 12,800 48 208 576
2019-10-20 11:16:14 GMT 56.341011 -2.777224 12,775 48 206 320
2019-10-20 11:16:10 GMT 56.339401 -2.780457 12,775 48 206 256
2019-10-20 11:16:07 GMT 56.336914 -2.785378 12,775 48 202 256
2019-10-20 11:16:04 GMT 56.334686 -2.789945 12,750 48 200 576
2019-10-20 11:16:01 GMT 56.333794 -2.791729 12,750 48 199 832
2019-10-20 11:15:58 GMT 56.329559 -2.800312 12,675 48 198 896
2019-10-20 11:15:54 GMT 56.329559 -2.800312 12,650 48 198 896
2019-10-20 11:15:51 GMT 56.327362 -2.804676 12,600 47 198 960
2019-10-20 11:15:48 GMT 56.325806 -2.807673 12,550 47 198 1024
2019-10-20 11:15:45 GMT 56.323135 -2.812929 12,475 47 198 1088
2019-10-20 11:15:42 GMT 56.321777 -2.815663 12,425 47 198 1088
2019-10-20 11:15:38 GMT 56.319397 -2.820240 12,400 47 198 1088
2019-10-20 11:15:34 GMT 56.315460 -2.827981 12,250 47 198 1088
2019-10-20 11:15:31 GMT 56.315460 -2.827981 12,250 47 198 1088
2019-10-20 11:15:28 GMT 56.313629 -2.831560 12,200 47 198 1152
2019-10-20 11:15:25 GMT 56.309727 -2.839279 12,075 47 197 1088
2019-10-20 11:15:18 GMT 56.306534 -2.845459 11,975 47 197 1024
2019-10-20 11:15:13 GMT 56.303787 -2.850869 11,900 47 196 1024
2019-10-20 11:15:10 GMT 56.302044 -2.854214 11,850 47 196 1088
2019-10-20 11:15:07 GMT 56.297298 -2.863312 11,750 46 196 1024
2019-10-20 11:15:03 GMT 56.297298 -2.863312 11,725 46 195 896
2019-10-20 11:14:59 GMT 56.294876 -2.867861 11,675 46 195 768
2019-10-20 11:14:55 GMT 56.292297 -2.872675 11,650 44 191 1280
2019-10-20 11:14:51 GMT 56.290421 -2.876171 11,550 45 193 768
2019-10-20 11:14:47 GMT 56.287567 -2.881508 11,525 45 192 832
2019-10-20 11:14:44 GMT 56.285984 -2.884340 11,500 45 192 832
2019-10-20 11:14:40 GMT 56.283520 -2.888889 11,450 45 191 1088
2019-10-20 11:14:37 GMT 56.281265 -2.892900 11,375 44 191 1152
2019-10-20 11:14:34 GMT 56.279701 -2.895670 11,300 42 193 1216
2019-10-20 11:14:31 GMT 56.277512 -2.899618 11,250 44 191 1280
2019-10-20 11:14:27 GMT 56.275043 -2.903996 11,175 44 191 1216
2019-10-20 11:14:24 GMT 56.273209 -2.907132 11,100 44 192 1152
2019-10-20 11:14:20 GMT 56.270782 -2.911377 11,025 43 191 1216
2019-10-20 11:14:16 GMT 56.268356 -2.915538 10,950 43 192 1216
2019-10-20 11:14:13 GMT 56.266388 -2.918868 10,900 43 192 1216
2019-10-20 11:14:10 GMT 56.264374 -2.922363 10,825 43 192 1216
2019-10-20 11:14:07 GMT 56.262291 -2.925882 10,700 42 194 1216
2019-10-20 11:14:03 GMT 56.260101 -2.929573 10,625 42 193 1216
2019-10-20 11:14:00 GMT 56.257645 -2.933599 10,625 42 194 1152
2019-10-20 11:13:57 GMT 56.255680 -2.936869 10,525 42 196 1152
2019-10-20 11:13:53 GMT 56.253250 -2.940840 10,475 42 195 1088
2019-10-20 11:13:50 GMT 56.247952 -2.949400 10,400 41 195 1152
2019-10-20 11:13:46 GMT 56.247952 -2.949400 10,325 41 195 1216
2019-10-20 11:13:43 GMT 56.246017 -2.952409 10,275 41 195 1280
2019-10-20 11:13:39 GMT 56.243622 -2.956181 10,200 40 195 1344
2019-10-20 11:13:35 GMT 56.241348 -2.959733 10,125 40 195 1344
2019-10-20 11:13:32 GMT 56.239334 -2.962896 10,050 40 197 1344
2019-10-20 11:13:29 GMT 56.236778 -2.966824 9,950 40 197 1408
2019-10-20 11:13:25 GMT 56.233986 -2.971115 9,900 40 197 1344
2019-10-20 11:13:22 GMT 56.229675 -2.977794 9,775 40 197 1152
2019-10-20 11:13:19 GMT 56.229675 -2.977794 9,750 40 197 1088
2019-10-20 11:13:15 GMT 56.227112 -2.981623 9,700 40 196 896
2019-10-20 11:13:11 GMT 56.224182 -2.986117 9,625 39 196 960
2019-10-20 11:13:08 GMT 56.222534 -2.988531 9,575 39 195 960
2019-10-20 11:13:04 GMT 56.219788 -2.992573 9,525 38 195 960
2019-10-20 11:13:01 GMT 56.215439 -2.998935 9,450 38 194 1024
2019-10-20 11:12:58 GMT 56.215439 -2.998935 9,425 38 194 960
2019-10-20 11:12:54 GMT 56.212620 -3.002958 9,350 38 194 960
2019-10-20 11:12:51 GMT 56.210037 -3.006675 9,300 38 193 1024
2019-10-20 11:12:48 GMT 56.208298 -3.009089 9,250 38 193 1152
2019-10-20 11:12:44 GMT 56.205414 -3.013084 9,175 37 193 1216
2019-10-20 11:12:40 GMT 56.202621 -3.017079 9,100 37 193 1280
2019-10-20 11:12:37 GMT 56.200840 -3.019524 9,025 37 194 1280
2019-10-20 11:12:34 GMT 56.198502 -3.022738 8,975 37 194 1216
2019-10-20 11:12:30 GMT 56.195801 -3.026400 8,875 37 194 1152
2019-10-20 11:12:27 GMT 56.193581 -3.029480 8,750 37 194 1088
2019-10-20 11:12:24 GMT 56.190693 -3.033342 8,750 37 194 1088
2019-10-20 11:12:21 GMT 56.189209 -3.035389 8,675 37 194 1088
2019-10-20 11:12:17 GMT 56.186363 -3.039265 8,600 37 194 1024
2019-10-20 11:12:13 GMT 56.183384 -3.043299 8,575 37 194 1152
2019-10-20 11:12:10 GMT 56.181702 -3.045627 8,525 37 193 1216
2019-10-20 11:12:07 GMT 56.179276 -3.048956 8,450 36 193 1280
2019-10-20 11:12:03 GMT 56.176121 -3.053169 8,350 36 194 1344
2019-10-20 11:12:00 GMT 56.171722 -3.058943 8,250 35 194 1408
2019-10-20 11:11:56 GMT 56.168907 -3.062611 8,175 35 195 1344
2019-10-20 11:11:53 GMT 56.168907 -3.062611 8,150 35 195 1280
2019-10-20 11:11:49 GMT 56.166161 -3.066130 8,050 35 195 1216
2019-10-20 11:11:46 GMT 56.163971 -3.068876 7,975 35 195 1216
2019-10-20 11:11:43 GMT 56.161224 -3.072309 7,925 35 194 1088
2019-10-20 11:11:40 GMT 56.159454 -3.074591 7,875 35 195 1408
2019-10-20 11:11:36 GMT 56.156384 -3.078403 7,775 35 196 896
2019-10-20 11:11:33 GMT 56.154568 -3.080721 7,725 35 195 704
2019-10-20 11:11:30 GMT 56.152054 -3.083982 7,700 35 195 896
2019-10-20 11:11:27 GMT 56.150333 -3.086214 7,675 35 195 1024
2019-10-20 11:11:24 GMT 56.147724 -3.089476 7,625 35 195 1152
2019-10-20 11:11:20 GMT 56.144852 -3.093151 7,500 35 196 1088
2019-10-20 11:11:17 GMT 56.142838 -3.095741 7,475 35 196 1152
2019-10-20 11:11:13 GMT 56.139343 -3.100119 7,350 35 195 1344
2019-10-20 11:11:10 GMT 56.136971 -3.103037 7,300 35 195 1344
2019-10-20 11:11:05 GMT 56.132446 -3.108881 7,150 35 196 1472
2019-10-20 11:11:02 GMT 56.131245 -3.110332 6,950 36 196 1472
2019-10-20 11:10:59 GMT 56.129475 -3.112736 7,050 36 196 1408
2019-10-20 11:10:55 GMT 56.126312 -3.116941 6,925 36 196 1280
2019-10-20 11:10:52 GMT 56.124069 -3.119951 6,875 36 196 1344
2019-10-20 11:10:49 GMT 56.121964 -3.122781 6,825 36 196 1280
2019-10-20 11:10:45 GMT 56.119125 -3.126609 6,750 36 196 1216
2019-10-20 11:10:42 GMT 56.116722 -3.129816 6,650 36 196 1664
2019-10-20 11:10:39 GMT 56.114628 -3.132648 6,600 37 197 1664
2019-10-20 11:10:33 GMT 56.110291 -3.138594 6,425 37 198 1792
2019-10-20 11:10:29 GMT 56.106899 -3.143120 6,275 37 200 1664
2019-10-20 11:10:24 GMT 56.103642 -3.147497 6,175 36 201 1344
2019-10-20 11:10:21 GMT 56.101963 -3.149729 6,100 36 200 1152
2019-10-20 11:10:18 GMT 56.099350 -3.153243 6,075 36 200 1216
2019-10-20 11:10:15 GMT 56.096649 -3.156822 6,000 36 200 1472
2019-10-20 11:10:12 GMT 56.094315 -3.159901 5,900 36 200 1344
2019-10-20 11:10:08 GMT 56.091934 -3.162981 5,875 36 200 1408
2019-10-20 11:10:04 GMT 56.088837 -3.167067 5,775 35 200 1472
2019-10-20 11:10:01 GMT 56.086136 -3.170500 5,725 35 200 1536
2019-10-20 11:09:57 GMT 56.083878 -3.173467 5,650 35 200 1856
2019-10-20 11:09:54 GMT 56.081131 -3.176880 5,475 35 203 2304
2019-10-20 11:09:50 GMT 56.078110 -3.180708 5,350 35 205 2432
2019-10-20 11:09:47 GMT 56.072479 -3.187783 4,825 35 212 2688
2019-10-20 11:09:43 GMT 56.072479 -3.187783 5,000 35 212 2624
2019-10-20 11:09:40 GMT 56.070511 -3.190363 4,950 35 212 2688
2019-10-20 11:09:37 GMT 56.067886 -3.193674 4,800 35 211 2496
2019-10-20 11:09:33 GMT 56.064583 -3.197966 4,675 35 212 2432
2019-10-20 11:09:29 GMT 56.059788 -3.204060 4,425 36 210 2048
2019-10-20 11:09:23 GMT 56.056576 -3.208265 4,250 36 212 2048
2019-10-20 11:09:20 GMT 56.054295 -3.211269 4,175 36 213 1856
2019-10-20 11:09:17 GMT 56.051968 -3.214273 4,075 36 214 1792
2019-10-20 11:09:12 GMT 56.048538 -3.218744 3,950 36 216 1216
2019-10-20 11:09:09 GMT 56.045883 -3.222240 3,925 36 216 320
2019-10-20 11:09:06 GMT 56.043728 -3.225088 3,900 36 216 -64
2019-10-20 11:09:02 GMT 56.040005 -3.229980 3,900 36 218 128
2019-10-20 11:08:59 GMT 56.037674 -3.233070 3,900 36 217 384
2019-10-20 11:08:56 GMT 56.035114 -3.236504 3,850 37 217 640
2019-10-20 11:08:52 GMT 56.031113 -3.241911 3,775 37 215 1088
2019-10-20 11:08:49 GMT 56.029530 -3.244057 3,750 37 214 1216
2019-10-20 11:08:45 GMT 56.027061 -3.247404 3,700 37 208 1408
2019-10-20 11:08:42 GMT 56.024277 -3.251204 3,625 37 210 1600
2019-10-20 11:08:39 GMT 56.021847 -3.254614 3,575 37 208 1408
2019-10-20 11:08:34 GMT 56.017891 -3.260021 3,475 37 204 1792
2019-10-20 11:08:31 GMT 56.014912 -3.264141 3,250 37 203 2432
2019-10-20 11:08:25 GMT 56.011642 -3.268599 3,100 37 204 2496
2019-10-20 11:08:22 GMT 56.009232 -3.271952 2,925 37 205 2368
2019-10-20 11:08:18 GMT 56.006207 -3.276072 2,775 37 206 2176
2019-10-20 11:08:15 GMT 56.003925 -3.279247 2,700 37 205 2176
2019-10-20 11:08:12 GMT 56.001297 -3.282915 2,600 38 204 2176
2019-10-20 11:08:08 GMT 55.998569 -3.286715 2,250 38 200 2176
2019-10-20 11:08:04 GMT 55.996216 -3.290072 2,250 38 200 2176
2019-10-20 11:08:01 GMT 55.994019 -3.293152 2,150 38 200 2304
2019-10-20 11:07:58 GMT 55.991589 -3.296585 1,975 38 199 2240
2019-10-20 11:07:55 GMT 55.989441 -3.299644 1,775 37 197 1920
2019-10-20 11:07:52 GMT 55.986748 -3.303280 1,750 37 196 1856
2019-10-20 11:07:47 GMT 55.983810 -3.307301 1,600 37 195 1792
2019-10-20 11:07:44 GMT 55.981201 -3.310880 1,475 38 193 1664
2019-10-20 11:07:41 GMT 55.979439 -3.313322 1,375 38 190 1344
2019-10-20 11:07:38 GMT 55.976738 -3.317099 1,275 38 188 1408
2019-10-20 11:07:34 GMT 55.974701 -3.320035 1,150 38 184 1344
2019-10-20 11:07:31 GMT 55.972458 -3.323278 1,075 38 180 1152
2019-10-20 11:07:27 GMT 55.969894 -3.326883 1,000 38 178 1088
2019-10-20 11:07:24 GMT 55.967560 -3.330272 900 39 173 896
2019-10-20 11:07:21 GMT 55.966003 -3.332520 875 40 170 704
2019-10-20 11:07:16 GMT 55.963440 -3.336515 800 43 164 960
2019-10-20 11:07:13 GMT 55.961750 -3.339415 700 49 161 2240

Making use of Plane Finder data

You are free to use the raw flight data, aircraft information and images provided in this report for your own purposes provided the data is correctly attributed to Plane Finder. We ask that you please credit Plane Finder and link to planefinder.net in close proximity to the content.

Optionally one of the following logos (no smaller then 150x24px) can be used and must link to planefinder.net

Embedding the Plane Finder map

You are welcome to embed the Plane Finder playback map on your website to offer visitors a more interactive experience. We suggest using the following HTML code:

<iframe src="//planefinder.net/data/report/FR1064-EI-DAH-7700-squawk-2019-10-20/map" width="800" height="600" seamless="seamless"></iframe>

Where our data comes from

Plane Finder has a global network of data feeds and antenna radars that receive data broadcast directly from aircraft. The primary technologies used are ADS-B and MLAT. We also show feeds from the FAA and a FLARM glider feed.

Click here to find out more about the Plane Finder network.

How we collect our data